PWSweather.com
Personal Weather Stations
Station Observations
EI4HQ
Cork Harbour, CobhIE

Cork HarbourCobhIE

Lat: 51.85, Lon: -8.29

Elevation: 252

Station Type: Davis Vantage Pro2

http://www.corkharbourweather.ie

High Low Average
Temperature 46.2°F7.9°C 37.0°F2.8°C 40.5°F4.7°C
Dew Point 39.7°F4.3°C 33.4°F0.8°C 36.3°F2.4°C
Winds 21.0 mph 33.8 kmh 2.0 mph 3.2 kmh 9.0 mph NW14.5 kmh NW
Wind Gusts 37.0 mph59.5 kmh 4.0 mph6.4 kmh 17.0 mph27.4 kmh
Humidity 93% 70% 85%
Pressure 30.13 in1020.3 mb 29.83 in1010.2 mb -
Precipitation 0.02 in0.5 mm - -
Hour Temp Dew Point Humidity Winds Wind Gusts Pressure Precip Precip Rate Daily Precip Total
12:00 AM 41.2°F5.1°C 39.2°F4.0°C 93% 5.0 mph NW8.0 kmh NW 14.0 mph22.5 kmh 29.84 in1010.5 mb 0.00 in0.0 mm 0.00 in0.0 mm 0.00 in0.0 mm
12:03 AM 41.2°F5.1°C 39.2°F4.0°C 93% 5.0 mph NW8.0 kmh NW 12.0 mph19.3 kmh 29.84 in1010.5 mb 0.00 in0.0 mm 0.00 in0.0 mm 0.00 in0.0 mm
12:06 AM 41.2°F5.1°C 39.0°F3.9°C 92% 5.0 mph NW8.0 kmh NW 12.0 mph19.3 kmh 29.84 in1010.5 mb 0.00 in0.0 mm 0.00 in0.0 mm 0.00 in0.0 mm
12:09 AM 41.4°F5.2°C 39.2°F4.0°C 92% 5.0 mph NW8.0 kmh NW 12.0 mph19.3 kmh 29.84 in1010.5 mb 0.00 in0.0 mm 0.00 in0.0 mm 0.00 in0.0 mm
12:12 AM 41.4°F5.2°C 39.2°F4.0°C 92% 6.0 mph NW9.7 kmh NW 12.0 mph19.3 kmh 29.84 in1010.5 mb 0.00 in0.0 mm 0.00 in0.0 mm 0.00 in0.0 mm
12:15 AM 41.4°F5.2°C 39.0°F3.9°C 91% 6.0 mph NW9.7 kmh NW 12.0 mph19.3 kmh 29.84 in1010.5 mb 0.00 in0.0 mm 0.00 in0.0 mm 0.00 in0.0 mm
12:18 AM 41.4°F5.2°C 39.0°F3.9°C 91% 5.0 mph NW8.0 kmh NW 11.0 mph17.7 kmh 29.84 in1010.5 mb 0.00 in0.0 mm 0.00 in0.0 mm 0.00 in0.0 mm
12:21 AM 41.4°F5.2°C 38.8°F3.8°C 91% 5.0 mph NW8.0 kmh NW 11.0 mph17.7 kmh 29.84 in1010.5 mb 0.00 in0.0 mm 0.00 in0.0 mm 0.00 in0.0 mm
12:24 AM 41.2°F5.1°C 38.5°F3.6°C 90% 5.0 mph NW8.0 kmh NW 11.0 mph17.7 kmh 29.84 in1010.5 mb 0.00 in0.0 mm 0.00 in0.0 mm 0.00 in0.0 mm
12:27 AM 41.0°F5.0°C 38.3°F3.5°C 90% 6.0 mph NW9.7 kmh NW 13.0 mph20.9 kmh 29.84 in1010.5 mb 0.00 in0.0 mm 0.00 in0.0 mm 0.00 in0.0 mm
12:30 AM 41.0°F5.0°C 38.3°F3.5°C 90% 7.0 mph NW11.3 kmh NW 14.0 mph22.5 kmh 29.84 in1010.5 mb 0.00 in0.0 mm 0.00 in0.0 mm 0.00 in0.0 mm
12:33 AM 40.8°F4.9°C 38.1°F3.4°C 90% 7.0 mph NW11.3 kmh NW 14.0 mph22.5 kmh 29.84 in1010.5 mb 0.00 in0.0 mm 0.00 in0.0 mm 0.00 in0.0 mm
12:36 AM 40.8°F4.9°C 38.1°F3.4°C 90% 7.0 mph NW11.3 kmh NW 17.0 mph27.4 kmh 29.84 in1010.5 mb 0.00 in0.0 mm 0.00 in0.0 mm 0.00 in0.0 mm
12:39 AM 40.8°F4.9°C 38.1°F3.4°C 90% 7.0 mph NW11.3 kmh NW 17.0 mph27.4 kmh 29.84 in1010.5 mb 0.00 in0.0 mm 0.00 in0.0 mm 0.00 in0.0 mm
12:42 AM 40.8°F4.9°C 38.1°F3.4°C 90% 6.0 mph NW9.7 kmh NW 17.0 mph27.4 kmh 29.84 in1010.5 mb 0.00 in0.0 mm 0.00 in0.0 mm 0.00 in0.0 mm
12:45 AM 40.8°F4.9°C 37.9°F3.3°C 89% 6.0 mph NW9.7 kmh NW 17.0 mph27.4 kmh 29.84 in1010.5 mb 0.00 in0.0 mm 0.00 in0.0 mm 0.00 in0.0 mm
12:48 AM 40.8°F4.9°C 37.8°F3.2°C 89% 5.0 mph NW8.0 kmh NW 13.0 mph20.9 kmh 29.84 in1010.5 mb 0.00 in0.0 mm 0.00 in0.0 mm 0.00 in0.0 mm
12:51 AM 40.8°F4.9°C 37.9°F3.3°C 89% 5.0 mph NW8.0 kmh NW 13.0 mph20.9 kmh 29.85 in1010.8 mb 0.00 in0.0 mm 0.00 in0.0 mm 0.00 in0.0 mm
12:54 AM 40.8°F4.9°C 37.9°F3.3°C 89% 5.0 mph NW8.0 kmh NW 12.0 mph19.3 kmh 29.85 in1010.8 mb 0.00 in0.0 mm 0.00 in0.0 mm 0.00 in0.0 mm
12:57 AM 40.8°F4.9°C 37.9°F3.3°C 89% 5.0 mph NW8.0 kmh NW 11.0 mph17.7 kmh 29.85 in1010.8 mb 0.00 in0.0 mm 0.00 in0.0 mm 0.00 in0.0 mm
01:00 AM 41.0°F5.0°C 37.9°F3.3°C 89% 5.0 mph NW8.0 kmh NW 11.0 mph17.7 kmh 29.85 in1010.8 mb 0.00 in0.0 mm 0.00 in0.0 mm 0.00 in0.0 mm
01:03 AM 41.0°F5.0°C 37.9°F3.3°C 89% 5.0 mph NW8.0 kmh NW 11.0 mph17.7 kmh 29.85 in1010.8 mb 0.00 in0.0 mm 0.00 in0.0 mm 0.00 in0.0 mm
01:06 AM 41.0°F5.0°C 37.9°F3.3°C 89% 4.0 mph NW6.4 kmh NW 11.0 mph17.7 kmh 29.85 in1010.8 mb 0.00 in0.0 mm 0.00 in0.0 mm 0.00 in0.0 mm
01:09 AM 41.0°F5.0°C 37.9°F3.3°C 89% 4.0 mph NW6.4 kmh NW 10.0 mph16.1 kmh 29.85 in1010.8 mb 0.00 in0.0 mm 0.00 in0.0 mm 0.00 in0.0 mm
01:12 AM 41.0°F5.0°C 37.9°F3.3°C 89% 5.0 mph NW8.0 kmh NW 10.0 mph16.1 kmh 29.85 in1010.8 mb 0.00 in0.0 mm 0.00 in0.0 mm 0.00 in0.0 mm
01:15 AM 41.2°F5.1°C 38.1°F3.4°C 89% 5.0 mph NW8.0 kmh NW 12.0 mph19.3 kmh 29.85 in1010.8 mb 0.00 in0.0 mm 0.00 in0.0 mm 0.00 in0.0 mm
01:18 AM 41.2°F5.1°C 38.1°F3.4°C 89% 5.0 mph NW8.0 kmh NW 12.0 mph19.3 kmh 29.85 in1010.8 mb 0.00 in0.0 mm 0.00 in0.0 mm 0.00 in0.0 mm
01:21 AM 41.2°F5.1°C 38.1°F3.4°C 89% 5.0 mph NW8.0 kmh NW 12.0 mph19.3 kmh 29.85 in1010.8 mb 0.00 in0.0 mm 0.00 in0.0 mm 0.00 in0.0 mm
01:24 AM 41.2°F5.1°C 38.1°F3.4°C 89% 4.0 mph NW6.4 kmh NW 12.0 mph19.3 kmh 29.84 in1010.5 mb 0.00 in0.0 mm 0.00 in0.0 mm 0.00 in0.0 mm
01:27 AM 41.2°F5.1°C 38.1°F3.4°C 89% 4.0 mph NW6.4 kmh NW 12.0 mph19.3 kmh 29.84 in1010.5 mb 0.00 in0.0 mm 0.00 in0.0 mm 0.00 in0.0 mm
01:30 AM 41.0°F5.0°C 37.9°F3.3°C 89% 4.0 mph NW6.4 kmh NW 10.0 mph16.1 kmh 29.84 in1010.5 mb 0.00 in0.0 mm 0.00 in0.0 mm 0.00 in0.0 mm
01:33 AM 41.0°F5.0°C 37.9°F3.3°C 89% 5.0 mph NW8.0 kmh NW 11.0 mph17.7 kmh 29.84 in1010.5 mb 0.00 in0.0 mm 0.00 in0.0 mm 0.00 in0.0 mm
01:36 AM 40.8°F4.9°C 37.9°F3.3°C 89% 5.0 mph NW8.0 kmh NW 11.0 mph17.7 kmh 29.84 in1010.5 mb 0.00 in0.0 mm 0.00 in0.0 mm 0.00 in0.0 mm
01:39 AM 40.8°F4.9°C 37.9°F3.3°C 89% 4.0 mph NW6.4 kmh NW 11.0 mph17.7 kmh 29.84 in1010.5 mb 0.00 in0.0 mm 0.00 in0.0 mm 0.00 in0.0 mm
01:42 AM 40.8°F4.9°C 37.8°F3.2°C 89% 4.0 mph NW6.4 kmh NW 11.0 mph17.7 kmh 29.84 in1010.5 mb 0.00 in0.0 mm 0.00 in0.0 mm 0.00 in0.0 mm
01:45 AM 40.8°F4.9°C 37.8°F3.2°C 89% 4.0 mph NW6.4 kmh NW 9.0 mph14.5 kmh 29.84 in1010.5 mb 0.00 in0.0 mm 0.00 in0.0 mm 0.00 in0.0 mm
01:48 AM 40.8°F4.9°C 37.8°F3.2°C 89% 4.0 mph NW6.4 kmh NW 9.0 mph14.5 kmh 29.84 in1010.5 mb 0.00 in0.0 mm 0.00 in0.0 mm 0.00 in0.0 mm
01:51 AM 40.8°F4.9°C 37.8°F3.2°C 89% 4.0 mph NW6.4 kmh NW 9.0 mph14.5 kmh 29.84 in1010.5 mb 0.00 in0.0 mm 0.00 in0.0 mm 0.00 in0.0 mm
01:54 AM 40.8°F4.9°C 38.1°F3.4°C 90% 4.0 mph NW6.4 kmh NW 9.0 mph14.5 kmh 29.84 in1010.5 mb 0.00 in0.0 mm 0.00 in0.0 mm 0.00 in0.0 mm
01:57 AM 40.8°F4.9°C 38.1°F3.4°C 90% 4.0 mph NW6.4 kmh NW 11.0 mph17.7 kmh 29.84 in1010.5 mb 0.00 in0.0 mm 0.00 in0.0 mm 0.00 in0.0 mm
02:00 AM 40.8°F4.9°C 38.1°F3.4°C 90% 4.0 mph NW6.4 kmh NW 11.0 mph17.7 kmh 29.84 in1010.5 mb 0.00 in0.0 mm 0.00 in0.0 mm 0.00 in0.0 mm
02:03 AM 40.8°F4.9°C 38.1°F3.4°C 90% 4.0 mph NW6.4 kmh NW 11.0 mph17.7 kmh 29.84 in1010.5 mb 0.00 in0.0 mm 0.00 in0.0 mm 0.00 in0.0 mm
02:06 AM 40.8°F4.9°C 38.1°F3.4°C 90% 5.0 mph NW8.0 kmh NW 11.0 mph17.7 kmh 29.84 in1010.5 mb 0.00 in0.0 mm 0.00 in0.0 mm 0.00 in0.0 mm
02:09 AM 40.6°F4.8°C 37.9°F3.3°C 90% 5.0 mph NW8.0 kmh NW 11.0 mph17.7 kmh 29.84 in1010.5 mb 0.00 in0.0 mm 0.00 in0.0 mm 0.00 in0.0 mm
02:12 AM 40.6°F4.8°C 37.8°F3.2°C 89% 5.0 mph NW8.0 kmh NW 11.0 mph17.7 kmh 29.84 in1010.5 mb 0.00 in0.0 mm 0.00 in0.0 mm 0.00 in0.0 mm
02:15 AM 40.6°F4.8°C 37.9°F3.3°C 90% 4.0 mph NW6.4 kmh NW 11.0 mph17.7 kmh 29.84 in1010.5 mb 0.00 in0.0 mm 0.00 in0.0 mm 0.00 in0.0 mm
02:18 AM 40.6°F4.8°C 37.9°F3.3°C 90% 4.0 mph NW6.4 kmh NW 8.0 mph12.9 kmh 29.84 in1010.5 mb 0.00 in0.0 mm 0.00 in0.0 mm 0.00 in0.0 mm
02:21 AM 40.6°F4.8°C 37.9°F3.3°C 90% 4.0 mph NW6.4 kmh NW 9.0 mph14.5 kmh 29.84 in1010.5 mb 0.00 in0.0 mm 0.00 in0.0 mm 0.00 in0.0 mm
02:24 AM 40.6°F4.8°C 37.9°F3.3°C 90% 3.0 mph NW4.8 kmh NW 9.0 mph14.5 kmh 29.84 in1010.5 mb 0.00 in0.0 mm 0.00 in0.0 mm 0.00 in0.0 mm
02:27 AM 40.6°F4.8°C 37.9°F3.3°C 90% 3.0 mph NW4.8 kmh NW 9.0 mph14.5 kmh 29.84 in1010.5 mb 0.00 in0.0 mm 0.00 in0.0 mm 0.00 in0.0 mm
02:30 AM 40.5°F4.7°C 37.8°F3.2°C 90% 3.0 mph NW4.8 kmh NW 9.0 mph14.5 kmh 29.84 in1010.5 mb 0.00 in0.0 mm 0.00 in0.0 mm 0.00 in0.0 mm
02:33 AM 40.5°F4.7°C 37.8°F3.2°C 90% 3.0 mph NW4.8 kmh NW 8.0 mph12.9 kmh 29.84 in1010.5 mb 0.00 in0.0 mm 0.00 in0.0 mm 0.00 in0.0 mm
02:36 AM 40.5°F4.7°C 37.8°F3.2°C 90% 3.0 mph NW4.8 kmh NW 8.0 mph12.9 kmh 29.84 in1010.5 mb 0.00 in0.0 mm 0.00 in0.0 mm 0.00 in0.0 mm
02:39 AM 40.5°F4.7°C 37.8°F3.2°C 90% 3.0 mph NW4.8 kmh NW 8.0 mph12.9 kmh 29.84 in1010.5 mb 0.00 in0.0 mm 0.00 in0.0 mm 0.00 in0.0 mm
02:42 AM 40.5°F4.7°C 37.8°F3.2°C 90% 3.0 mph NW4.8 kmh NW 8.0 mph12.9 kmh 29.84 in1010.5 mb 0.00 in0.0 mm 0.00 in0.0 mm 0.00 in0.0 mm
02:45 AM 40.5°F4.7°C 37.8°F3.2°C 90% 3.0 mph NW4.8 kmh NW 10.0 mph16.1 kmh 29.84 in1010.5 mb 0.00 in0.0 mm 0.00 in0.0 mm 0.00 in0.0 mm
02:48 AM 40.5°F4.7°C 37.8°F3.2°C 90% 3.0 mph NW4.8 kmh NW 10.0 mph16.1 kmh 29.84 in1010.5 mb 0.00 in0.0 mm 0.00 in0.0 mm 0.00 in0.0 mm
02:51 AM 40.5°F4.7°C 37.8°F3.2°C 90% 4.0 mph NW6.4 kmh NW 10.0 mph16.1 kmh 29.84 in1010.5 mb 0.00 in0.0 mm 0.00 in0.0 mm 0.00 in0.0 mm
02:54 AM 40.5°F4.7°C 37.8°F3.2°C 90% 4.0 mph NW6.4 kmh NW 10.0 mph16.1 kmh 29.84 in1010.5 mb 0.00 in0.0 mm 0.00 in0.0 mm 0.00 in0.0 mm
02:57 AM 40.5°F4.7°C 37.8°F3.2°C 90% 4.0 mph NW6.4 kmh NW 11.0 mph17.7 kmh 29.84 in1010.5 mb 0.00 in0.0 mm 0.00 in0.0 mm 0.00 in0.0 mm
03:00 AM 40.5°F4.7°C 37.8°F3.2°C 90% 4.0 mph NW6.4 kmh NW 11.0 mph17.7 kmh 29.84 in1010.5 mb 0.00 in0.0 mm 0.00 in0.0 mm 0.00 in0.0 mm
03:03 AM 40.5°F4.7°C 37.8°F3.2°C 90% 4.0 mph NW6.4 kmh NW 11.0 mph17.7 kmh 29.84 in1010.5 mb 0.00 in0.0 mm 0.00 in0.0 mm 0.00 in0.0 mm
03:06 AM 40.6°F4.8°C 37.9°F3.3°C 90% 4.0 mph NW6.4 kmh NW 11.0 mph17.7 kmh 29.84 in1010.5 mb 0.00 in0.0 mm 0.00 in0.0 mm 0.00 in0.0 mm
03:09 AM 40.6°F4.8°C 37.9°F3.3°C 90% 4.0 mph NW6.4 kmh NW 11.0 mph17.7 kmh 29.84 in1010.5 mb 0.00 in0.0 mm 0.00 in0.0 mm 0.00 in0.0 mm
03:12 AM 40.6°F4.8°C 37.9°F3.3°C 90% 4.0 mph NW6.4 kmh NW 11.0 mph17.7 kmh 29.84 in1010.5 mb 0.00 in0.0 mm 0.00 in0.0 mm 0.00 in0.0 mm
03:15 AM 40.6°F4.8°C 37.9°F3.3°C 90% 5.0 mph NW8.0 kmh NW 13.0 mph20.9 kmh 29.84 in1010.5 mb 0.00 in0.0 mm 0.00 in0.0 mm 0.00 in0.0 mm
03:18 AM 40.6°F4.8°C 37.9°F3.3°C 90% 5.0 mph NW8.0 kmh NW 13.0 mph20.9 kmh 29.84 in1010.5 mb 0.00 in0.0 mm 0.00 in0.0 mm 0.00 in0.0 mm
03:21 AM 40.6°F4.8°C 37.8°F3.2°C 89% 5.0 mph NW8.0 kmh NW 13.0 mph20.9 kmh 29.84 in1010.5 mb 0.00 in0.0 mm 0.00 in0.0 mm 0.00 in0.0 mm
03:24 AM 40.6°F4.8°C 37.8°F3.2°C 89% 5.0 mph NW8.0 kmh NW 12.0 mph19.3 kmh 29.84 in1010.5 mb 0.00 in0.0 mm 0.00 in0.0 mm 0.00 in0.0 mm
03:27 AM 40.6°F4.8°C 37.8°F3.2°C 89% 5.0 mph NW8.0 kmh NW 12.0 mph19.3 kmh 29.84 in1010.5 mb 0.00 in0.0 mm 0.00 in0.0 mm 0.00 in0.0 mm
03:30 AM 40.8°F4.9°C 37.8°F3.2°C 89% 5.0 mph NW8.0 kmh NW 12.0 mph19.3 kmh 29.84 in1010.5 mb 0.00 in0.0 mm 0.00 in0.0 mm 0.00 in0.0 mm
03:33 AM 40.8°F4.9°C 37.8°F3.2°C 89% 5.0 mph NW8.0 kmh NW 11.0 mph17.7 kmh 29.84 in1010.5 mb 0.00 in0.0 mm 0.00 in0.0 mm 0.00 in0.0 mm
03:36 AM 40.8°F4.9°C 37.8°F3.2°C 89% 5.0 mph NW8.0 kmh NW 12.0 mph19.3 kmh 29.84 in1010.5 mb 0.00 in0.0 mm 0.00 in0.0 mm 0.00 in0.0 mm
03:39 AM 40.8°F4.9°C 37.8°F3.2°C 89% 5.0 mph NW8.0 kmh NW 12.0 mph19.3 kmh 29.84 in1010.5 mb 0.00 in0.0 mm 0.00 in0.0 mm 0.00 in0.0 mm
03:42 AM 40.8°F4.9°C 37.8°F3.2°C 89% 5.0 mph NW8.0 kmh NW 13.0 mph20.9 kmh 29.84 in1010.5 mb 0.00 in0.0 mm 0.00 in0.0 mm 0.00 in0.0 mm
03:45 AM 40.8°F4.9°C 37.8°F3.2°C 89% 5.0 mph NW8.0 kmh NW 13.0 mph20.9 kmh 29.84 in1010.5 mb 0.00 in0.0 mm 0.00 in0.0 mm 0.00 in0.0 mm
03:48 AM 40.8°F4.9°C 37.6°F3.1°C 88% 5.0 mph NW8.0 kmh NW 14.0 mph22.5 kmh 29.84 in1010.5 mb 0.00 in0.0 mm 0.00 in0.0 mm 0.00 in0.0 mm
03:51 AM 40.8°F4.9°C 37.9°F3.3°C 89% 6.0 mph NW9.7 kmh NW 14.0 mph22.5 kmh 29.83 in1010.2 mb 0.00 in0.0 mm 0.00 in0.0 mm 0.00 in0.0 mm
03:54 AM 40.8°F4.9°C 37.6°F3.1°C 88% 6.0 mph NW9.7 kmh NW 14.0 mph22.5 kmh 29.83 in1010.2 mb 0.00 in0.0 mm 0.00 in0.0 mm 0.00 in0.0 mm
03:57 AM 40.8°F4.9°C 37.6°F3.1°C 88% 5.0 mph NW8.0 kmh NW 14.0 mph22.5 kmh 29.83 in1010.2 mb 0.00 in0.0 mm 0.00 in0.0 mm 0.00 in0.0 mm
04:00 AM 40.8°F4.9°C 37.6°F3.1°C 88% 5.0 mph NW8.0 kmh NW 13.0 mph20.9 kmh 29.83 in1010.2 mb 0.00 in0.0 mm 0.00 in0.0 mm 0.00 in0.0 mm
04:03 AM 40.8°F4.9°C 37.6°F3.1°C 88% 5.0 mph NW8.0 kmh NW 13.0 mph20.9 kmh 29.83 in1010.2 mb 0.00 in0.0 mm 0.00 in0.0 mm 0.00 in0.0 mm
04:06 AM 40.8°F4.9°C 37.6°F3.1°C 88% 5.0 mph NW8.0 kmh NW 12.0 mph19.3 kmh 29.83 in1010.2 mb 0.00 in0.0 mm 0.00 in0.0 mm 0.00 in0.0 mm
04:09 AM 40.8°F4.9°C 37.6°F3.1°C 88% 5.0 mph NW8.0 kmh NW 12.0 mph19.3 kmh 29.83 in1010.2 mb 0.00 in0.0 mm 0.00 in0.0 mm 0.00 in0.0 mm
04:12 AM 40.8°F4.9°C 37.4°F3.0°C 87% 5.0 mph NW8.0 kmh NW 11.0 mph17.7 kmh 29.83 in1010.2 mb 0.00 in0.0 mm 0.00 in0.0 mm 0.00 in0.0 mm
04:15 AM 41.0°F5.0°C 37.4°F3.0°C 87% 5.0 mph NW8.0 kmh NW 12.0 mph19.3 kmh 29.83 in1010.2 mb 0.00 in0.0 mm 0.00 in0.0 mm 0.00 in0.0 mm
04:18 AM 41.0°F5.0°C 37.4°F3.0°C 87% 5.0 mph NW8.0 kmh NW 12.0 mph19.3 kmh 29.83 in1010.2 mb 0.00 in0.0 mm 0.00 in0.0 mm 0.00 in0.0 mm
04:21 AM 41.0°F5.0°C 37.4°F3.0°C 87% 5.0 mph NW8.0 kmh NW 12.0 mph19.3 kmh 29.84 in1010.5 mb 0.00 in0.0 mm 0.00 in0.0 mm 0.00 in0.0 mm
04:24 AM 41.0°F5.0°C 37.4°F3.0°C 87% 5.0 mph NW8.0 kmh NW 13.0 mph20.9 kmh 29.84 in1010.5 mb 0.00 in0.0 mm 0.00 in0.0 mm 0.00 in0.0 mm
04:27 AM 40.8°F4.9°C 37.4°F3.0°C 87% 5.0 mph NW8.0 kmh NW 13.0 mph20.9 kmh 29.84 in1010.5 mb 0.00 in0.0 mm 0.00 in0.0 mm 0.00 in0.0 mm
04:30 AM 40.8°F4.9°C 38.8°F3.8°C 92% 4.0 mph NW6.4 kmh NW 13.0 mph20.9 kmh 29.84 in1010.5 mb 0.00 in0.0 mm 0.00 in0.0 mm 0.00 in0.0 mm
04:33 AM 40.8°F4.9°C 37.2°F2.9°C 87% 4.0 mph WNW6.4 kmh WNW 10.0 mph16.1 kmh 29.84 in1010.5 mb 0.00 in0.0 mm 0.00 in0.0 mm 0.00 in0.0 mm
04:36 AM 40.6°F4.8°C 37.2°F2.9°C 87% 5.0 mph WNW8.0 kmh WNW 12.0 mph19.3 kmh 29.84 in1010.5 mb 0.00 in0.0 mm 0.00 in0.0 mm 0.00 in0.0 mm
04:39 AM 40.6°F4.8°C 37.4°F3.0°C 88% 5.0 mph WNW8.0 kmh WNW 12.0 mph19.3 kmh 29.84 in1010.5 mb 0.00 in0.0 mm 0.00 in0.0 mm 0.00 in0.0 mm
04:42 AM 40.6°F4.8°C 37.4°F3.0°C 88% 5.0 mph WNW8.0 kmh WNW 15.0 mph24.1 kmh 29.84 in1010.5 mb 0.00 in0.0 mm 0.00 in0.0 mm 0.00 in0.0 mm
04:45 AM 40.5°F4.7°C 37.2°F2.9°C 88% 4.0 mph WNW6.4 kmh WNW 15.0 mph24.1 kmh 29.84 in1010.5 mb 0.00 in0.0 mm 0.00 in0.0 mm 0.00 in0.0 mm
04:48 AM 40.5°F4.7°C 37.0°F2.8°C 88% 4.0 mph NW6.4 kmh NW 15.0 mph24.1 kmh 29.84 in1010.5 mb 0.00 in0.0 mm 0.00 in0.0 mm 0.00 in0.0 mm
04:51 AM 40.3°F4.6°C 37.0°F2.8°C 88% 4.0 mph NW6.4 kmh NW 9.0 mph14.5 kmh 29.84 in1010.5 mb 0.00 in0.0 mm 0.00 in0.0 mm 0.00 in0.0 mm
04:54 AM 40.3°F4.6°C 36.9°F2.7°C 88% 4.0 mph NW6.4 kmh NW 9.0 mph14.5 kmh 29.84 in1010.5 mb 0.00 in0.0 mm 0.00 in0.0 mm 0.00 in0.0 mm
04:57 AM 40.3°F4.6°C 37.2°F2.9°C 89% 4.0 mph NW6.4 kmh NW 10.0 mph16.1 kmh 29.84 in1010.5 mb 0.00 in0.0 mm 0.00 in0.0 mm 0.00 in0.0 mm
05:00 AM 40.3°F4.6°C 36.9°F2.7°C 88% 4.0 mph NW6.4 kmh NW 12.0 mph19.3 kmh 29.84 in1010.5 mb 0.00 in0.0 mm 0.00 in0.0 mm 0.00 in0.0 mm
05:03 AM 40.1°F4.5°C 37.0°F2.8°C 89% 4.0 mph NW6.4 kmh NW 13.0 mph20.9 kmh 29.84 in1010.5 mb 0.00 in0.0 mm 0.00 in0.0 mm 0.00 in0.0 mm
05:06 AM 40.1°F4.5°C 36.9°F2.7°C 88% 4.0 mph NW6.4 kmh NW 13.0 mph20.9 kmh 29.84 in1010.5 mb 0.00 in0.0 mm 0.00 in0.0 mm 0.00 in0.0 mm
05:09 AM 40.1°F4.5°C 37.0°F2.8°C 89% 5.0 mph NW8.0 kmh NW 13.0 mph20.9 kmh 29.84 in1010.5 mb 0.00 in0.0 mm 0.00 in0.0 mm 0.00 in0.0 mm
05:12 AM 40.1°F4.5°C 37.0°F2.8°C 89% 5.0 mph NW8.0 kmh NW 11.0 mph17.7 kmh 29.84 in1010.5 mb 0.00 in0.0 mm 0.00 in0.0 mm 0.00 in0.0 mm
05:15 AM 39.9°F4.4°C 37.0°F2.8°C 89% 5.0 mph NW8.0 kmh NW 11.0 mph17.7 kmh 29.84 in1010.5 mb 0.00 in0.0 mm 0.00 in0.0 mm 0.00 in0.0 mm
05:18 AM 39.9°F4.4°C 37.0°F2.8°C 89% 5.0 mph NW8.0 kmh NW 11.0 mph17.7 kmh 29.84 in1010.5 mb 0.00 in0.0 mm 0.00 in0.0 mm 0.00 in0.0 mm
05:21 AM 39.9°F4.4°C 36.9°F2.7°C 89% 5.0 mph NW8.0 kmh NW 16.0 mph25.7 kmh 29.84 in1010.5 mb 0.00 in0.0 mm 0.00 in0.0 mm 0.00 in0.0 mm
05:24 AM 39.9°F4.4°C 36.9°F2.7°C 89% 5.0 mph NW8.0 kmh NW 16.0 mph25.7 kmh 29.84 in1010.5 mb 0.00 in0.0 mm 0.00 in0.0 mm 0.00 in0.0 mm
05:27 AM 39.7°F4.3°C 36.9°F2.7°C 89% 4.0 mph NW6.4 kmh NW 16.0 mph25.7 kmh 29.84 in1010.5 mb 0.00 in0.0 mm 0.00 in0.0 mm 0.00 in0.0 mm
05:30 AM 39.7°F4.3°C 36.7°F2.6°C 89% 4.0 mph NW6.4 kmh NW 9.0 mph14.5 kmh 29.84 in1010.5 mb 0.00 in0.0 mm 0.00 in0.0 mm 0.00 in0.0 mm
05:33 AM 39.7°F4.3°C 36.7°F2.6°C 89% 4.0 mph NW6.4 kmh NW 11.0 mph17.7 kmh 29.84 in1010.5 mb 0.00 in0.0 mm 0.00 in0.0 mm 0.00 in0.0 mm
05:36 AM 39.6°F4.2°C 36.7°F2.6°C 89% 4.0 mph NW6.4 kmh NW 11.0 mph17.7 kmh 29.84 in1010.5 mb 0.00 in0.0 mm 0.00 in0.0 mm 0.00 in0.0 mm
05:39 AM 39.6°F4.2°C 36.7°F2.6°C 89% 4.0 mph NW6.4 kmh NW 13.0 mph20.9 kmh 29.84 in1010.5 mb 0.00 in0.0 mm 0.00 in0.0 mm 0.00 in0.0 mm
05:42 AM 39.6°F4.2°C 36.9°F2.7°C 90% 4.0 mph NW6.4 kmh NW 13.0 mph20.9 kmh 29.84 in1010.5 mb 0.00 in0.0 mm 0.00 in0.0 mm 0.00 in0.0 mm
05:45 AM 39.6°F4.2°C 36.9°F2.7°C 90% 4.0 mph NW6.4 kmh NW 13.0 mph20.9 kmh 29.84 in1010.5 mb 0.00 in0.0 mm 0.00 in0.0 mm 0.00 in0.0 mm
05:48 AM 39.7°F4.3°C 37.0°F2.8°C 90% 4.0 mph NW6.4 kmh NW 13.0 mph20.9 kmh 29.85 in1010.8 mb 0.00 in0.0 mm 0.00 in0.0 mm 0.00 in0.0 mm
05:51 AM 39.7°F4.3°C 37.0°F2.8°C 90% 3.0 mph WNW4.8 kmh WNW 9.0 mph14.5 kmh 29.85 in1010.8 mb 0.00 in0.0 mm 0.00 in0.0 mm 0.00 in0.0 mm
05:54 AM 39.7°F4.3°C 37.0°F2.8°C 90% 3.0 mph WNW4.8 kmh WNW 11.0 mph17.7 kmh 29.84 in1010.5 mb 0.00 in0.0 mm 0.00 in0.0 mm 0.00 in0.0 mm
05:57 AM 39.7°F4.3°C 37.0°F2.8°C 90% 4.0 mph WNW6.4 kmh WNW 11.0 mph17.7 kmh 29.84 in1010.5 mb 0.00 in0.0 mm 0.00 in0.0 mm 0.00 in0.0 mm
06:00 AM 39.6°F4.2°C 36.9°F2.7°C 90% 4.0 mph WNW6.4 kmh WNW 11.0 mph17.7 kmh 29.85 in1010.8 mb 0.00 in0.0 mm 0.00 in0.0 mm 0.00 in0.0 mm
06:03 AM 39.6°F4.2°C 36.9°F2.7°C 90% 4.0 mph W6.4 kmh W 10.0 mph16.1 kmh 29.85 in1010.8 mb 0.00 in0.0 mm 0.00 in0.0 mm 0.00 in0.0 mm
06:06 AM 39.6°F4.2°C 36.9°F2.7°C 90% 4.0 mph W6.4 kmh W 10.0 mph16.1 kmh 29.85 in1010.8 mb 0.00 in0.0 mm 0.00 in0.0 mm 0.00 in0.0 mm
06:09 AM 39.6°F4.2°C 36.9°F2.7°C 90% 4.0 mph W6.4 kmh W 10.0 mph16.1 kmh 29.85 in1010.8 mb 0.00 in0.0 mm 0.00 in0.0 mm 0.00 in0.0 mm
06:12 AM 39.4°F4.1°C 36.7°F2.6°C 90% 4.0 mph W6.4 kmh W 11.0 mph17.7 kmh 29.85 in1010.8 mb 0.00 in0.0 mm 0.00 in0.0 mm 0.00 in0.0 mm
06:15 AM 39.4°F4.1°C 36.7°F2.6°C 90% 5.0 mph WNW8.0 kmh WNW 11.0 mph17.7 kmh 29.85 in1010.8 mb 0.00 in0.0 mm 0.00 in0.0 mm 0.00 in0.0 mm
06:18 AM 39.4°F4.1°C 36.7°F2.6°C 90% 5.0 mph WNW8.0 kmh WNW 11.0 mph17.7 kmh 29.85 in1010.8 mb 0.00 in0.0 mm 0.00 in0.0 mm 0.00 in0.0 mm
06:21 AM 39.2°F4.0°C 36.5°F2.5°C 90% 5.0 mph WNW8.0 kmh WNW 11.0 mph17.7 kmh 29.85 in1010.8 mb 0.00 in0.0 mm 0.00 in0.0 mm 0.00 in0.0 mm
06:24 AM 39.0°F3.9°C 36.5°F2.5°C 90% 5.0 mph WNW8.0 kmh WNW 11.0 mph17.7 kmh 29.85 in1010.8 mb 0.00 in0.0 mm 0.00 in0.0 mm 0.00 in0.0 mm
06:27 AM 39.0°F3.9°C 36.5°F2.5°C 90% 4.0 mph NW6.4 kmh NW 11.0 mph17.7 kmh 29.85 in1010.8 mb 0.00 in0.0 mm 0.00 in0.0 mm 0.00 in0.0 mm
06:30 AM 39.0°F3.9°C 36.3°F2.4°C 90% 4.0 mph NW6.4 kmh NW 8.0 mph12.9 kmh 29.85 in1010.8 mb 0.00 in0.0 mm 0.00 in0.0 mm 0.00 in0.0 mm
06:33 AM 39.0°F3.9°C 36.3°F2.4°C 90% 3.0 mph NW4.8 kmh NW 8.0 mph12.9 kmh 29.85 in1010.8 mb 0.00 in0.0 mm 0.00 in0.0 mm 0.00 in0.0 mm
06:36 AM 39.0°F3.9°C 36.5°F2.5°C 90% 3.0 mph NW4.8 kmh NW 8.0 mph12.9 kmh 29.85 in1010.8 mb 0.00 in0.0 mm 0.00 in0.0 mm 0.00 in0.0 mm
06:39 AM 39.0°F3.9°C 36.5°F2.5°C 90% 4.0 mph NW6.4 kmh NW 9.0 mph14.5 kmh 29.85 in1010.8 mb 0.00 in0.0 mm 0.00 in0.0 mm 0.00 in0.0 mm
06:42 AM 39.2°F4.0°C 36.5°F2.5°C 90% 4.0 mph NW6.4 kmh NW 9.0 mph14.5 kmh 29.85 in1010.8 mb 0.00 in0.0 mm 0.00 in0.0 mm 0.00 in0.0 mm
06:45 AM 39.2°F4.0°C 36.5°F2.5°C 90% 4.0 mph NW6.4 kmh NW 11.0 mph17.7 kmh 29.85 in1010.8 mb 0.00 in0.0 mm 0.00 in0.0 mm 0.00 in0.0 mm
06:48 AM 39.2°F4.0°C 36.5°F2.5°C 90% 3.0 mph NW4.8 kmh NW 11.0 mph17.7 kmh 29.85 in1010.8 mb 0.00 in0.0 mm 0.00 in0.0 mm 0.00 in0.0 mm
06:51 AM 39.2°F4.0°C 36.5°F2.5°C 90% 3.0 mph NW4.8 kmh NW 11.0 mph17.7 kmh 29.85 in1010.8 mb 0.00 in0.0 mm 0.00 in0.0 mm 0.00 in0.0 mm
06:54 AM 39.0°F3.9°C 36.5°F2.5°C 90% 2.0 mph NW3.2 kmh NW 4.0 mph6.4 kmh 29.85 in1010.8 mb 0.00 in0.0 mm 0.00 in0.0 mm 0.00 in0.0 mm
06:57 AM 39.0°F3.9°C 36.0°F2.2°C 89% 2.0 mph NW3.2 kmh NW 4.0 mph6.4 kmh 29.85 in1010.8 mb 0.00 in0.0 mm 0.00 in0.0 mm 0.00 in0.0 mm
07:00 AM 38.8°F3.8°C 35.8°F2.1°C 89% 2.0 mph NW3.2 kmh NW 5.0 mph8.0 kmh 29.85 in1010.8 mb 0.00 in0.0 mm 0.00 in0.0 mm 0.00 in0.0 mm
07:03 AM 38.7°F3.7°C 35.6°F2.0°C 89% 2.0 mph NW3.2 kmh NW 5.0 mph8.0 kmh 29.85 in1010.8 mb 0.00 in0.0 mm 0.00 in0.0 mm 0.00 in0.0 mm
07:06 AM 38.5°F3.6°C 35.6°F2.0°C 89% 2.0 mph NW3.2 kmh NW 5.0 mph8.0 kmh 29.85 in1010.8 mb 0.00 in0.0 mm 0.00 in0.0 mm 0.00 in0.0 mm
07:09 AM 38.5°F3.6°C 35.4°F1.9°C 89% 2.0 mph NW3.2 kmh NW 6.0 mph9.7 kmh 29.85 in1010.8 mb 0.00 in0.0 mm 0.00 in0.0 mm 0.00 in0.0 mm
07:12 AM 38.3°F3.5°C 35.6°F2.0°C 90% 2.0 mph NW3.2 kmh NW 6.0 mph9.7 kmh 29.85 in1010.8 mb 0.00 in0.0 mm 0.00 in0.0 mm 0.00 in0.0 mm
07:15 AM 38.1°F3.4°C 35.6°F2.0°C 90% 3.0 mph NW4.8 kmh NW 10.0 mph16.1 kmh 29.85 in1010.8 mb 0.00 in0.0 mm 0.00 in0.0 mm 0.00 in0.0 mm
07:18 AM 38.1°F3.4°C 35.6°F2.0°C 90% 3.0 mph WNW4.8 kmh WNW 10.0 mph16.1 kmh 29.86 in1011.2 mb 0.00 in0.0 mm 0.00 in0.0 mm 0.00 in0.0 mm
07:21 AM 38.3°F3.5°C 35.6°F2.0°C 90% 3.0 mph WNW4.8 kmh WNW 10.0 mph16.1 kmh 29.86 in1011.2 mb 0.00 in0.0 mm 0.00 in0.0 mm 0.00 in0.0 mm
07:24 AM 38.5°F3.6°C 35.8°F2.1°C 90% 4.0 mph WNW6.4 kmh WNW 10.0 mph16.1 kmh 29.86 in1011.2 mb 0.00 in0.0 mm 0.00 in0.0 mm 0.00 in0.0 mm
07:27 AM 38.7°F3.7°C 36.0°F2.2°C 90% 4.0 mph WNW6.4 kmh WNW 10.0 mph16.1 kmh 29.86 in1011.2 mb 0.00 in0.0 mm 0.00 in0.0 mm 0.00 in0.0 mm
07:30 AM 38.7°F3.7°C 36.0°F2.2°C 90% 4.0 mph WNW6.4 kmh WNW 10.0 mph16.1 kmh 29.86 in1011.2 mb 0.00 in0.0 mm 0.00 in0.0 mm 0.00 in0.0 mm
07:33 AM 38.8°F3.8°C 36.1°F2.3°C 90% 4.0 mph WNW6.4 kmh WNW 10.0 mph16.1 kmh 29.86 in1011.2 mb 0.00 in0.0 mm 0.00 in0.0 mm 0.00 in0.0 mm
07:36 AM 39.0°F3.9°C 36.3°F2.4°C 90% 4.0 mph WNW6.4 kmh WNW 8.0 mph12.9 kmh 29.86 in1011.2 mb 0.00 in0.0 mm 0.00 in0.0 mm 0.00 in0.0 mm
07:39 AM 39.0°F3.9°C 36.5°F2.5°C 90% 3.0 mph WNW4.8 kmh WNW 8.0 mph12.9 kmh 29.86 in1011.2 mb 0.00 in0.0 mm 0.00 in0.0 mm 0.00 in0.0 mm
07:42 AM 39.0°F3.9°C 36.1°F2.3°C 89% 4.0 mph WNW6.4 kmh WNW 8.0 mph12.9 kmh 29.86 in1011.2 mb 0.00 in0.0 mm 0.00 in0.0 mm 0.00 in0.0 mm
07:45 AM 39.0°F3.9°C 36.1°F2.3°C 89% 3.0 mph WNW4.8 kmh WNW 8.0 mph12.9 kmh 29.86 in1011.2 mb 0.00 in0.0 mm 0.00 in0.0 mm 0.00 in0.0 mm
07:48 AM 39.0°F3.9°C 36.0°F2.2°C 89% 3.0 mph WNW4.8 kmh WNW 8.0 mph12.9 kmh 29.86 in1011.2 mb 0.00 in0.0 mm 0.00 in0.0 mm 0.00 in0.0 mm
07:51 AM 38.8°F3.8°C 35.8°F2.1°C 89% 3.0 mph WNW4.8 kmh WNW 8.0 mph12.9 kmh 29.86 in1011.2 mb 0.00 in0.0 mm 0.00 in0.0 mm 0.00 in0.0 mm
07:54 AM 38.7°F3.7°C 35.4°F1.9°C 88% 2.0 mph WNW3.2 kmh WNW 5.0 mph8.0 kmh 29.86 in1011.2 mb 0.00 in0.0 mm 0.00 in0.0 mm 0.00 in0.0 mm
07:57 AM 38.5°F3.6°C 35.6°F2.0°C 89% 3.0 mph WNW4.8 kmh WNW 7.0 mph11.3 kmh 29.86 in1011.2 mb 0.00 in0.0 mm 0.00 in0.0 mm 0.00 in0.0 mm
08:00 AM 38.5°F3.6°C 35.4°F1.9°C 89% 3.0 mph WNW4.8 kmh WNW 7.0 mph11.3 kmh 29.86 in1011.2 mb 0.00 in0.0 mm 0.00 in0.0 mm 0.00 in0.0 mm
08:03 AM 38.1°F3.4°C 35.2°F1.8°C 89% 3.0 mph WNW4.8 kmh WNW 7.0 mph11.3 kmh 29.86 in1011.2 mb 0.00 in0.0 mm 0.00 in0.0 mm 0.00 in0.0 mm
08:06 AM 38.1°F3.4°C 35.2°F1.8°C 89% 3.0 mph WNW4.8 kmh WNW 8.0 mph12.9 kmh 29.86 in1011.2 mb 0.00 in0.0 mm 0.00 in0.0 mm 0.00 in0.0 mm
08:09 AM 38.3°F3.5°C 35.6°F2.0°C 90% 4.0 mph WNW6.4 kmh WNW 10.0 mph16.1 kmh 29.86 in1011.2 mb 0.00 in0.0 mm 0.00 in0.0 mm 0.00 in0.0 mm
08:12 AM 38.5°F3.6°C 35.8°F2.1°C 90% 3.0 mph WNW4.8 kmh WNW 10.0 mph16.1 kmh 29.86 in1011.2 mb 0.00 in0.0 mm 0.00 in0.0 mm 0.00 in0.0 mm
08:15 AM 38.5°F3.6°C 35.8°F2.1°C 90% 4.0 mph WNW6.4 kmh WNW 11.0 mph17.7 kmh 29.86 in1011.2 mb 0.00 in0.0 mm 0.00 in0.0 mm 0.00 in0.0 mm
08:18 AM 38.7°F3.7°C 36.0°F2.2°C 90% 3.0 mph WNW4.8 kmh WNW 11.0 mph17.7 kmh 29.86 in1011.2 mb 0.00 in0.0 mm 0.00 in0.0 mm 0.00 in0.0 mm
08:21 AM 38.7°F3.7°C 36.0°F2.2°C 90% 3.0 mph NW4.8 kmh NW 11.0 mph17.7 kmh 29.86 in1011.2 mb 0.00 in0.0 mm 0.00 in0.0 mm 0.00 in0.0 mm
08:24 AM 38.8°F3.8°C 36.1°F2.3°C 90% 4.0 mph NW6.4 kmh NW 11.0 mph17.7 kmh 29.86 in1011.2 mb 0.00 in0.0 mm 0.00 in0.0 mm 0.00 in0.0 mm
08:27 AM 38.8°F3.8°C 36.1°F2.3°C 90% 5.0 mph NW8.0 kmh NW 12.0 mph19.3 kmh 29.86 in1011.2 mb 0.00 in0.0 mm 0.00 in0.0 mm 0.00 in0.0 mm
08:30 AM 38.8°F3.8°C 36.1°F2.3°C 90% 5.0 mph NW8.0 kmh NW 12.0 mph19.3 kmh 29.86 in1011.2 mb 0.00 in0.0 mm 0.00 in0.0 mm 0.00 in0.0 mm
08:33 AM 38.8°F3.8°C 36.0°F2.2°C 89% 4.0 mph NW6.4 kmh NW 12.0 mph19.3 kmh 29.86 in1011.2 mb 0.00 in0.0 mm 0.00 in0.0 mm 0.00 in0.0 mm
08:36 AM 38.8°F3.8°C 35.8°F2.1°C 89% 4.0 mph NW6.4 kmh NW 12.0 mph19.3 kmh 29.86 in1011.2 mb 0.00 in0.0 mm 0.00 in0.0 mm 0.00 in0.0 mm
08:39 AM 38.7°F3.7°C 35.8°F2.1°C 89% 4.0 mph NW6.4 kmh NW 10.0 mph16.1 kmh 29.86 in1011.2 mb 0.00 in0.0 mm 0.00 in0.0 mm 0.00 in0.0 mm
08:42 AM 38.8°F3.8°C 36.1°F2.3°C 90% 4.0 mph NW6.4 kmh NW 10.0 mph16.1 kmh 29.86 in1011.2 mb 0.00 in0.0 mm 0.00 in0.0 mm 0.00 in0.0 mm
08:45 AM 38.8°F3.8°C 36.1°F2.3°C 90% 4.0 mph NW6.4 kmh NW 10.0 mph16.1 kmh 29.87 in1011.5 mb 0.00 in0.0 mm 0.00 in0.0 mm 0.00 in0.0 mm
08:48 AM 39.0°F3.9°C 36.3°F2.4°C 90% 4.0 mph NW6.4 kmh NW 11.0 mph17.7 kmh 29.87 in1011.5 mb 0.00 in0.0 mm 0.00 in0.0 mm 0.00 in0.0 mm
08:51 AM 39.0°F3.9°C 36.5°F2.5°C 90% 4.0 mph NW6.4 kmh NW 14.0 mph22.5 kmh 29.87 in1011.5 mb 0.00 in0.0 mm 0.00 in0.0 mm 0.00 in0.0 mm
08:54 AM 39.4°F4.1°C 36.7°F2.6°C 90% 5.0 mph NW8.0 kmh NW 17.0 mph27.4 kmh 29.87 in1011.5 mb 0.00 in0.0 mm 0.00 in0.0 mm 0.00 in0.0 mm
08:57 AM 39.4°F4.1°C 36.5°F2.5°C 89% 6.0 mph NW9.7 kmh NW 17.0 mph27.4 kmh 29.87 in1011.5 mb 0.00 in0.0 mm 0.00 in0.0 mm 0.00 in0.0 mm
09:00 AM 39.6°F4.2°C 36.5°F2.5°C 89% 6.0 mph NW9.7 kmh NW 17.0 mph27.4 kmh 29.87 in1011.5 mb 0.01 in0.3 mm 0.01 in0.3 mm 0.01 in0.3 mm
09:03 AM 39.6°F4.2°C 36.5°F2.5°C 89% 6.0 mph NW9.7 kmh NW 14.0 mph22.5 kmh 29.87 in1011.5 mb 0.01 in0.3 mm 0.00 in0.0 mm 0.01 in0.3 mm
09:06 AM 39.4°F4.1°C 36.5°F2.5°C 89% 5.0 mph NW8.0 kmh NW 13.0 mph20.9 kmh 29.87 in1011.5 mb 0.01 in0.3 mm 0.00 in0.0 mm 0.01 in0.3 mm
09:09 AM 39.4°F4.1°C 36.5°F2.5°C 89% 5.0 mph NW8.0 kmh NW 11.0 mph17.7 kmh 29.87 in1011.5 mb 0.01 in0.3 mm 0.00 in0.0 mm 0.01 in0.3 mm
09:12 AM 39.4°F4.1°C 36.5°F2.5°C 89% 5.0 mph NW8.0 kmh NW 10.0 mph16.1 kmh 29.87 in1011.5 mb 0.01 in0.3 mm 0.00 in0.0 mm 0.01 in0.3 mm
09:15 AM 39.4°F4.1°C 36.5°F2.5°C 89% 4.0 mph NW6.4 kmh NW 10.0 mph16.1 kmh 29.88 in1011.9 mb 0.01 in0.3 mm 0.00 in0.0 mm 0.01 in0.3 mm
09:18 AM 39.4°F4.1°C 36.5°F2.5°C 89% 4.0 mph NW6.4 kmh NW 9.0 mph14.5 kmh 29.88 in1011.9 mb 0.01 in0.3 mm 0.00 in0.0 mm 0.01 in0.3 mm
09:21 AM 39.4°F4.1°C 36.3°F2.4°C 89% 3.0 mph NW4.8 kmh NW 9.0 mph14.5 kmh 29.88 in1011.9 mb 0.01 in0.3 mm 0.00 in0.0 mm 0.01 in0.3 mm
09:24 AM 39.2°F4.0°C 36.3°F2.4°C 89% 3.0 mph NW4.8 kmh NW 8.0 mph12.9 kmh 29.88 in1011.9 mb 0.01 in0.3 mm 0.00 in0.0 mm 0.01 in0.3 mm
09:27 AM 39.2°F4.0°C 36.3°F2.4°C 89% 3.0 mph NW4.8 kmh NW 8.0 mph12.9 kmh 29.87 in1011.5 mb 0.01 in0.3 mm 0.00 in0.0 mm 0.01 in0.3 mm
09:30 AM 39.0°F3.9°C 36.1°F2.3°C 89% 4.0 mph NW6.4 kmh NW 10.0 mph16.1 kmh 29.87 in1011.5 mb 0.01 in0.3 mm 0.00 in0.0 mm 0.01 in0.3 mm
09:33 AM 39.2°F4.0°C 36.3°F2.4°C 89% 4.0 mph NW6.4 kmh NW 10.0 mph16.1 kmh 29.87 in1011.5 mb 0.01 in0.3 mm 0.00 in0.0 mm 0.01 in0.3 mm
09:36 AM 39.4°F4.1°C 36.5°F2.5°C 89% 4.0 mph NW6.4 kmh NW 13.0 mph20.9 kmh 29.87 in1011.5 mb 0.01 in0.3 mm 0.00 in0.0 mm 0.01 in0.3 mm
09:39 AM 39.6°F4.2°C 36.7°F2.6°C 89% 5.0 mph NW8.0 kmh NW 13.0 mph20.9 kmh 29.87 in1011.5 mb 0.01 in0.3 mm 0.00 in0.0 mm 0.01 in0.3 mm
09:42 AM 39.7°F4.3°C 36.7°F2.6°C 89% 5.0 mph NW8.0 kmh NW 13.0 mph20.9 kmh 29.87 in1011.5 mb 0.01 in0.3 mm 0.00 in0.0 mm 0.01 in0.3 mm
09:45 AM 39.9°F4.4°C 36.9°F2.7°C 89% 5.0 mph NW8.0 kmh NW 13.0 mph20.9 kmh 29.87 in1011.5 mb 0.01 in0.3 mm 0.00 in0.0 mm 0.01 in0.3 mm
09:48 AM 39.9°F4.4°C 37.0°F2.8°C 89% 6.0 mph NW9.7 kmh NW 18.0 mph29.0 kmh 29.87 in1011.5 mb 0.01 in0.3 mm 0.00 in0.0 mm 0.01 in0.3 mm
09:51 AM 40.1°F4.5°C 36.9°F2.7°C 88% 7.0 mph NW11.3 kmh NW 18.0 mph29.0 kmh 29.87 in1011.5 mb 0.01 in0.3 mm 0.00 in0.0 mm 0.01 in0.3 mm
09:54 AM 40.3°F4.6°C 37.0°F2.8°C 88% 8.0 mph NW12.9 kmh NW 18.0 mph29.0 kmh 29.87 in1011.5 mb 0.01 in0.3 mm 0.00 in0.0 mm 0.01 in0.3 mm
09:57 AM 40.5°F4.7°C 37.2°F2.9°C 88% 8.0 mph NNW12.9 kmh NNW 18.0 mph29.0 kmh 29.87 in1011.5 mb 0.00 in0.0 mm 0.00 in0.0 mm 0.01 in0.3 mm
10:00 AM 40.6°F4.8°C 37.4°F3.0°C 88% 7.0 mph NNW11.3 kmh NNW 17.0 mph27.4 kmh 29.88 in1011.9 mb 0.00 in0.0 mm 0.00 in0.0 mm 0.01 in0.3 mm
10:03 AM 40.8°F4.9°C 37.6°F3.1°C 88% 6.0 mph NW9.7 kmh NW 13.0 mph20.9 kmh 29.88 in1011.9 mb 0.00 in0.0 mm 0.00 in0.0 mm 0.01 in0.3 mm
10:06 AM 41.2°F5.1°C 37.8°F3.2°C 88% 5.0 mph NW8.0 kmh NW 13.0 mph20.9 kmh 29.88 in1011.9 mb 0.00 in0.0 mm 0.00 in0.0 mm 0.01 in0.3 mm
10:09 AM 41.4°F5.2°C 37.8°F3.2°C 87% 5.0 mph NW8.0 kmh NW 11.0 mph17.7 kmh 29.88 in1011.9 mb 0.00 in0.0 mm 0.00 in0.0 mm 0.01 in0.3 mm
10:12 AM 41.5°F5.3°C 37.9°F3.3°C 87% 4.0 mph NW6.4 kmh NW 11.0 mph17.7 kmh 29.88 in1011.9 mb 0.00 in0.0 mm 0.00 in0.0 mm 0.01 in0.3 mm
10:15 AM 41.7°F5.4°C 38.1°F3.4°C 87% 5.0 mph NW8.0 kmh NW 16.0 mph25.7 kmh 29.88 in1011.9 mb 0.00 in0.0 mm 0.00 in0.0 mm 0.01 in0.3 mm
10:18 AM 41.9°F5.5°C 38.3°F3.5°C 87% 5.0 mph NW8.0 kmh NW 16.0 mph25.7 kmh 29.88 in1011.9 mb 0.00 in0.0 mm 0.00 in0.0 mm 0.01 in0.3 mm
10:21 AM 41.9°F5.5°C 37.9°F3.3°C 86% 6.0 mph NW9.7 kmh NW 16.0 mph25.7 kmh 29.88 in1011.9 mb 0.00 in0.0 mm 0.00 in0.0 mm 0.01 in0.3 mm
10:24 AM 41.9°F5.5°C 37.9°F3.3°C 86% 6.0 mph NW9.7 kmh NW 21.0 mph33.8 kmh 29.88 in1011.9 mb 0.00 in0.0 mm 0.00 in0.0 mm 0.01 in0.3 mm
10:27 AM 41.7°F5.4°C 37.6°F3.1°C 85% 7.0 mph NW11.3 kmh NW 21.0 mph33.8 kmh 29.88 in1011.9 mb 0.00 in0.0 mm 0.00 in0.0 mm 0.01 in0.3 mm
10:30 AM 41.7°F5.4°C 37.6°F3.1°C 85% 7.0 mph NW11.3 kmh NW 21.0 mph33.8 kmh 29.89 in1012.2 mb 0.00 in0.0 mm 0.00 in0.0 mm 0.01 in0.3 mm
10:33 AM 41.7°F5.4°C 37.8°F3.2°C 86% 6.0 mph NW9.7 kmh NW 21.0 mph33.8 kmh 29.89 in1012.2 mb 0.00 in0.0 mm 0.00 in0.0 mm 0.01 in0.3 mm
10:36 AM 41.5°F5.3°C 37.8°F3.2°C 86% 6.0 mph NW9.7 kmh NW 12.0 mph19.3 kmh 29.89 in1012.2 mb 0.00 in0.0 mm 0.00 in0.0 mm 0.01 in0.3 mm
10:39 AM 41.5°F5.3°C 37.6°F3.1°C 86% 5.0 mph NW8.0 kmh NW 12.0 mph19.3 kmh 29.89 in1012.2 mb 0.00 in0.0 mm 0.00 in0.0 mm 0.01 in0.3 mm
10:42 AM 41.4°F5.2°C 37.6°F3.1°C 86% 5.0 mph NW8.0 kmh NW 12.0 mph19.3 kmh 29.89 in1012.2 mb 0.00 in0.0 mm 0.00 in0.0 mm 0.01 in0.3 mm
10:45 AM 41.4°F5.2°C 37.4°F3.0°C 86% 4.0 mph NW6.4 kmh NW 11.0 mph17.7 kmh 29.89 in1012.2 mb 0.00 in0.0 mm 0.00 in0.0 mm 0.01 in0.3 mm
10:48 AM 41.4°F5.2°C 37.4°F3.0°C 86% 4.0 mph NW6.4 kmh NW 11.0 mph17.7 kmh 29.89 in1012.2 mb 0.00 in0.0 mm 0.00 in0.0 mm 0.01 in0.3 mm
10:51 AM 41.4°F5.2°C 37.6°F3.1°C 86% 4.0 mph NW6.4 kmh NW 11.0 mph17.7 kmh 29.88 in1011.9 mb 0.00 in0.0 mm 0.00 in0.0 mm 0.01 in0.3 mm
10:54 AM 41.4°F5.2°C 37.6°F3.1°C 86% 4.0 mph NW6.4 kmh NW 10.0 mph16.1 kmh 29.88 in1011.9 mb 0.00 in0.0 mm 0.00 in0.0 mm 0.01 in0.3 mm
10:57 AM 41.5°F5.3°C 37.6°F3.1°C 86% 4.0 mph NW6.4 kmh NW 10.0 mph16.1 kmh 29.88 in1011.9 mb 0.00 in0.0 mm 0.00 in0.0 mm 0.01 in0.3 mm
11:00 AM 41.5°F5.3°C 37.9°F3.3°C 87% 4.0 mph NW6.4 kmh NW 10.0 mph16.1 kmh 29.88 in1011.9 mb 0.00 in0.0 mm 0.00 in0.0 mm 0.01 in0.3 mm
11:03 AM 41.7°F5.4°C 38.1°F3.4°C 87% 5.0 mph NW8.0 kmh NW 10.0 mph16.1 kmh 29.88 in1011.9 mb 0.00 in0.0 mm 0.00 in0.0 mm 0.01 in0.3 mm
11:06 AM 41.9°F5.5°C 38.3°F3.5°C 87% 5.0 mph NW8.0 kmh NW 11.0 mph17.7 kmh 29.88 in1011.9 mb 0.00 in0.0 mm 0.00 in0.0 mm 0.01 in0.3 mm
11:09 AM 42.1°F5.6°C 38.5°F3.6°C 87% 5.0 mph NW8.0 kmh NW 11.0 mph17.7 kmh 29.89 in1012.2 mb 0.00 in0.0 mm 0.00 in0.0 mm 0.01 in0.3 mm
11:12 AM 42.3°F5.7°C 38.3°F3.5°C 86% 5.0 mph NW8.0 kmh NW 11.0 mph17.7 kmh 29.89 in1012.2 mb 0.00 in0.0 mm 0.00 in0.0 mm 0.01 in0.3 mm
11:15 AM 42.3°F5.7°C 38.5°F3.6°C 86% 5.0 mph NW8.0 kmh NW 13.0 mph20.9 kmh 29.89 in1012.2 mb 0.00 in0.0 mm 0.00 in0.0 mm 0.01 in0.3 mm
11:18 AM 42.4°F5.8°C 38.5°F3.6°C 86% 5.0 mph NW8.0 kmh NW 15.0 mph24.1 kmh 29.89 in1012.2 mb 0.00 in0.0 mm 0.00 in0.0 mm 0.01 in0.3 mm
11:21 AM 42.6°F5.9°C 38.7°F3.7°C 86% 6.0 mph NW9.7 kmh NW 15.0 mph24.1 kmh 29.89 in1012.2 mb 0.00 in0.0 mm 0.00 in0.0 mm 0.01 in0.3 mm
11:24 AM 42.6°F5.9°C 38.8°F3.8°C 86% 6.0 mph NW9.7 kmh NW 15.0 mph24.1 kmh 29.89 in1012.2 mb 0.00 in0.0 mm 0.00 in0.0 mm 0.01 in0.3 mm
11:27 AM 43.0°F6.1°C 39.0°F3.9°C 86% 6.0 mph NW9.7 kmh NW 13.0 mph20.9 kmh 29.89 in1012.2 mb 0.00 in0.0 mm 0.00 in0.0 mm 0.01 in0.3 mm
11:30 AM 43.2°F6.2°C 39.2°F4.0°C 86% 7.0 mph NW11.3 kmh NW 15.0 mph24.1 kmh 29.89 in1012.2 mb 0.00 in0.0 mm 0.00 in0.0 mm 0.01 in0.3 mm
11:33 AM 43.2°F6.2°C 39.0°F3.9°C 85% 7.0 mph NW11.3 kmh NW 19.0 mph30.6 kmh 29.89 in1012.2 mb 0.00 in0.0 mm 0.00 in0.0 mm 0.01 in0.3 mm
11:36 AM 43.2°F6.2°C 39.0°F3.9°C 85% 8.0 mph NW12.9 kmh NW 20.0 mph32.2 kmh 29.89 in1012.2 mb 0.00 in0.0 mm 0.00 in0.0 mm 0.01 in0.3 mm
11:39 AM 43.2°F6.2°C 38.7°F3.7°C 84% 9.0 mph NW14.5 kmh NW 20.0 mph32.2 kmh 29.89 in1012.2 mb 0.00 in0.0 mm 0.00 in0.0 mm 0.01 in0.3 mm
11:42 AM 43.3°F6.3°C 38.8°F3.8°C 84% 10.0 mph NW16.1 kmh NW 20.0 mph32.2 kmh 29.89 in1012.2 mb 0.00 in0.0 mm 0.00 in0.0 mm 0.01 in0.3 mm
11:45 AM 43.3°F6.3°C 38.8°F3.8°C 84% 9.0 mph NW14.5 kmh NW 20.0 mph32.2 kmh 29.89 in1012.2 mb 0.00 in0.0 mm 0.00 in0.0 mm 0.01 in0.3 mm
11:48 AM 43.3°F6.3°C 38.7°F3.7°C 83% 8.0 mph NW12.9 kmh NW 20.0 mph32.2 kmh 29.89 in1012.2 mb 0.00 in0.0 mm 0.00 in0.0 mm 0.01 in0.3 mm
11:51 AM 43.5°F6.4°C 38.7°F3.7°C 83% 8.0 mph NW12.9 kmh NW 20.0 mph32.2 kmh 29.89 in1012.2 mb 0.00 in0.0 mm 0.00 in0.0 mm 0.01 in0.3 mm
11:54 AM 43.5°F6.4°C 38.8°F3.8°C 83% 7.0 mph NW11.3 kmh NW 17.0 mph27.4 kmh 29.89 in1012.2 mb 0.00 in0.0 mm 0.00 in0.0 mm 0.01 in0.3 mm
11:57 AM 43.7°F6.5°C 38.8°F3.8°C 83% 6.0 mph NW9.7 kmh NW 14.0 mph22.5 kmh 29.89 in1012.2 mb 0.00 in0.0 mm 0.00 in0.0 mm 0.01 in0.3 mm
12:00 PM 43.9°F6.6°C 39.0°F3.9°C 83% 6.0 mph NW9.7 kmh NW 14.0 mph22.5 kmh 29.89 in1012.2 mb 0.00 in0.0 mm 0.00 in0.0 mm 0.01 in0.3 mm
12:03 PM 43.9°F6.6°C 39.0°F3.9°C 83% 6.0 mph NW9.7 kmh NW 13.0 mph20.9 kmh 29.89 in1012.2 mb 0.00 in0.0 mm 0.00 in0.0 mm 0.01 in0.3 mm
12:06 PM 44.1°F6.7°C 39.2°F4.0°C 83% 6.0 mph NW9.7 kmh NW 14.0 mph22.5 kmh 29.89 in1012.2 mb 0.00 in0.0 mm 0.00 in0.0 mm 0.01 in0.3 mm
12:09 PM 44.1°F6.7°C 39.2°F4.0°C 83% 7.0 mph NW11.3 kmh NW 15.0 mph24.1 kmh 29.89 in1012.2 mb 0.00 in0.0 mm 0.00 in0.0 mm 0.01 in0.3 mm
12:12 PM 44.2°F6.8°C 39.4°F4.1°C 83% 7.0 mph NW11.3 kmh NW 16.0 mph25.7 kmh 29.89 in1012.2 mb 0.00 in0.0 mm 0.00 in0.0 mm 0.01 in0.3 mm
12:15 PM 44.4°F6.9°C 39.7°F4.3°C 83% 8.0 mph NW12.9 kmh NW 21.0 mph33.8 kmh 29.89 in1012.2 mb 0.00 in0.0 mm 0.00 in0.0 mm 0.01 in0.3 mm
12:18 PM 44.6°F7.0°C 39.7°F4.3°C 83% 9.0 mph NW14.5 kmh NW 22.0 mph35.4 kmh 29.89 in1012.2 mb 0.00 in0.0 mm 0.00 in0.0 mm 0.01 in0.3 mm
12:21 PM 44.2°F6.8°C 39.2°F4.0°C 82% 13.0 mph NNW20.9 kmh NNW 31.0 mph49.9 kmh 29.89 in1012.2 mb 0.00 in0.0 mm 0.00 in0.0 mm 0.01 in0.3 mm
12:24 PM 43.3°F6.3°C 38.3°F3.5°C 82% 15.0 mph NNW24.1 kmh NNW 31.0 mph49.9 kmh 29.89 in1012.2 mb 0.00 in0.0 mm 0.00 in0.0 mm 0.01 in0.3 mm
12:27 PM 42.6°F5.9°C 37.9°F3.3°C 83% 17.0 mph NNW27.4 kmh NNW 31.0 mph49.9 kmh 29.89 in1012.2 mb 0.00 in0.0 mm 0.00 in0.0 mm 0.01 in0.3 mm
12:30 PM 42.1°F5.6°C 37.2°F2.9°C 83% 16.0 mph NNW25.7 kmh NNW 31.0 mph49.9 kmh 29.90 in1012.5 mb 0.00 in0.0 mm 0.00 in0.0 mm 0.01 in0.3 mm
12:33 PM 41.5°F5.3°C 36.9°F2.7°C 83% 15.0 mph NNW24.1 kmh NNW 29.0 mph46.7 kmh 29.89 in1012.2 mb 0.00 in0.0 mm 0.00 in0.0 mm 0.01 in0.3 mm
12:36 PM 41.4°F5.2°C 36.9°F2.7°C 84% 15.0 mph NNW24.1 kmh NNW 28.0 mph45.1 kmh 29.89 in1012.2 mb 0.00 in0.0 mm 0.00 in0.0 mm 0.01 in0.3 mm
12:39 PM 41.4°F5.2°C 36.9°F2.7°C 84% 14.0 mph NNW22.5 kmh NNW 25.0 mph40.2 kmh 29.89 in1012.2 mb 0.00 in0.0 mm 0.00 in0.0 mm 0.01 in0.3 mm
12:42 PM 41.4°F5.2°C 36.9°F2.7°C 84% 14.0 mph NNW22.5 kmh NNW 25.0 mph40.2 kmh 29.89 in1012.2 mb 0.00 in0.0 mm 0.00 in0.0 mm 0.01 in0.3 mm
12:45 PM 41.5°F5.3°C 37.0°F2.8°C 84% 14.0 mph NNW22.5 kmh NNW 23.0 mph37.0 kmh 29.89 in1012.2 mb 0.00 in0.0 mm 0.00 in0.0 mm 0.01 in0.3 mm
12:48 PM 42.1°F5.6°C 37.6°F3.1°C 84% 14.0 mph NNW22.5 kmh NNW 25.0 mph40.2 kmh 29.89 in1012.2 mb 0.00 in0.0 mm 0.00 in0.0 mm 0.01 in0.3 mm
12:51 PM 42.4°F5.8°C 37.8°F3.2°C 83% 15.0 mph NNW24.1 kmh NNW 25.0 mph40.2 kmh 29.89 in1012.2 mb 0.00 in0.0 mm 0.00 in0.0 mm 0.01 in0.3 mm
12:54 PM 43.0°F6.1°C 37.8°F3.2°C 82% 15.0 mph NNW24.1 kmh NNW 25.0 mph40.2 kmh 29.89 in1012.2 mb 0.00 in0.0 mm 0.00 in0.0 mm 0.01 in0.3 mm
12:57 PM 43.2°F6.2°C 38.1°F3.4°C 82% 15.0 mph NNW24.1 kmh NNW 25.0 mph40.2 kmh 29.89 in1012.2 mb 0.00 in0.0 mm 0.00 in0.0 mm 0.01 in0.3 mm
01:00 PM 43.5°F6.4°C 38.3°F3.5°C 82% 14.0 mph NNW22.5 kmh NNW 25.0 mph40.2 kmh 29.89 in1012.2 mb 0.00 in0.0 mm 0.00 in0.0 mm 0.01 in0.3 mm
01:03 PM 43.9°F6.6°C 38.8°F3.8°C 82% 14.0 mph NNW22.5 kmh NNW 24.0 mph38.6 kmh 29.89 in1012.2 mb 0.00 in0.0 mm 0.00 in0.0 mm 0.01 in0.3 mm
01:06 PM 44.1°F6.7°C 38.3°F3.5°C 80% 14.0 mph NNW22.5 kmh NNW 31.0 mph49.9 kmh 29.89 in1012.2 mb 0.00 in0.0 mm 0.00 in0.0 mm 0.01 in0.3 mm
01:09 PM 44.1°F6.7°C 38.3°F3.5°C 80% 15.0 mph NNW24.1 kmh NNW 31.0 mph49.9 kmh 29.89 in1012.2 mb 0.00 in0.0 mm 0.00 in0.0 mm 0.01 in0.3 mm
01:12 PM 43.9°F6.6°C 38.1°F3.4°C 80% 14.0 mph NNW22.5 kmh NNW 31.0 mph49.9 kmh 29.89 in1012.2 mb 0.00 in0.0 mm 0.00 in0.0 mm 0.01 in0.3 mm
01:15 PM 43.5°F6.4°C 37.6°F3.1°C 79% 14.0 mph NNW22.5 kmh NNW 26.0 mph41.8 kmh 29.89 in1012.2 mb 0.00 in0.0 mm 0.00 in0.0 mm 0.01 in0.3 mm
01:18 PM 43.3°F6.3°C 37.2°F2.9°C 79% 13.0 mph NNW20.9 kmh NNW 26.0 mph41.8 kmh 29.90 in1012.5 mb 0.00 in0.0 mm 0.00 in0.0 mm 0.01 in0.3 mm
01:21 PM 43.3°F6.3°C 37.6°F3.1°C 80% 14.0 mph NNW22.5 kmh NNW 23.0 mph37.0 kmh 29.90 in1012.5 mb 0.00 in0.0 mm 0.00 in0.0 mm 0.01 in0.3 mm
01:24 PM 43.3°F6.3°C 37.6°F3.1°C 80% 14.0 mph NNW22.5 kmh NNW 25.0 mph40.2 kmh 29.89 in1012.2 mb 0.00 in0.0 mm 0.00 in0.0 mm 0.01 in0.3 mm
01:27 PM 43.5°F6.4°C 37.8°F3.2°C 80% 15.0 mph NNW24.1 kmh NNW 29.0 mph46.7 kmh 29.89 in1012.2 mb 0.00 in0.0 mm 0.00 in0.0 mm 0.01 in0.3 mm
01:30 PM 43.5°F6.4°C 37.4°F3.0°C 79% 16.0 mph NNW25.7 kmh NNW 29.0 mph46.7 kmh 29.89 in1012.2 mb 0.00 in0.0 mm 0.00 in0.0 mm 0.01 in0.3 mm
01:33 PM 43.7°F6.5°C 37.6°F3.1°C 79% 17.0 mph NNW27.4 kmh NNW 29.0 mph46.7 kmh 29.89 in1012.2 mb 0.00 in0.0 mm 0.00 in0.0 mm 0.01 in0.3 mm
01:36 PM 44.1°F6.7°C 37.9°F3.3°C 79% 16.0 mph NNW25.7 kmh NNW 29.0 mph46.7 kmh 29.89 in1012.2 mb 0.00 in0.0 mm 0.00 in0.0 mm 0.01 in0.3 mm
01:39 PM 44.4°F6.9°C 37.9°F3.3°C 78% 16.0 mph NNW25.7 kmh NNW 31.0 mph49.9 kmh 29.89 in1012.2 mb 0.00 in0.0 mm 0.00 in0.0 mm 0.01 in0.3 mm
01:42 PM 44.8°F7.1°C 37.9°F3.3°C 77% 17.0 mph NNW27.4 kmh NNW 31.0 mph49.9 kmh 29.89 in1012.2 mb 0.00 in0.0 mm 0.00 in0.0 mm 0.01 in0.3 mm
01:45 PM 45.0°F7.2°C 37.8°F3.2°C 76% 17.0 mph NNW27.4 kmh NNW 31.0 mph49.9 kmh 29.89 in1012.2 mb 0.00 in0.0 mm 0.00 in0.0 mm 0.01 in0.3 mm
01:48 PM 45.0°F7.2°C 37.4°F3.0°C 75% 17.0 mph NNW27.4 kmh NNW 31.0 mph49.9 kmh 29.89 in1012.2 mb 0.00 in0.0 mm 0.00 in0.0 mm 0.01 in0.3 mm
01:51 PM 45.1°F7.3°C 37.6°F3.1°C 75% 18.0 mph NNW29.0 kmh NNW 31.0 mph49.9 kmh 29.89 in1012.2 mb 0.00 in0.0 mm 0.00 in0.0 mm 0.01 in0.3 mm
01:54 PM 45.3°F7.4°C 37.8°F3.2°C 75% 17.0 mph NNW27.4 kmh NNW 31.0 mph49.9 kmh 29.89 in1012.2 mb 0.00 in0.0 mm 0.00 in0.0 mm 0.01 in0.3 mm
01:57 PM 45.5°F7.5°C 38.3°F3.5°C 76% 14.0 mph NNW22.5 kmh NNW 29.0 mph46.7 kmh 29.89 in1012.2 mb 0.00 in0.0 mm 0.00 in0.0 mm 0.01 in0.3 mm
02:00 PM 45.7°F7.6°C 38.1°F3.4°C 75% 12.0 mph NNW19.3 kmh NNW 25.0 mph40.2 kmh 29.89 in1012.2 mb 0.00 in0.0 mm 0.00 in0.0 mm 0.01 in0.3 mm
02:03 PM 45.7°F7.6°C 37.9°F3.3°C 74% 11.0 mph NNW17.7 kmh NNW 24.0 mph38.6 kmh 29.89 in1012.2 mb 0.00 in0.0 mm 0.00 in0.0 mm 0.01 in0.3 mm
02:06 PM 45.9°F7.7°C 37.6°F3.1°C 73% 12.0 mph NNW19.3 kmh NNW 26.0 mph41.8 kmh 29.89 in1012.2 mb 0.00 in0.0 mm 0.00 in0.0 mm 0.01 in0.3 mm
02:09 PM 45.9°F7.7°C 37.6°F3.1°C 73% 14.0 mph NNW22.5 kmh NNW 26.0 mph41.8 kmh 29.89 in1012.2 mb 0.00 in0.0 mm 0.00 in0.0 mm 0.01 in0.3 mm
02:12 PM 46.0°F7.8°C 37.9°F3.3°C 73% 17.0 mph NNW27.4 kmh NNW 32.0 mph51.5 kmh 29.89 in1012.2 mb 0.00 in0.0 mm 0.00 in0.0 mm 0.01 in0.3 mm
02:15 PM 46.2°F7.9°C 37.6°F3.1°C 72% 17.0 mph NNW27.4 kmh NNW 32.0 mph51.5 kmh 29.89 in1012.2 mb 0.00 in0.0 mm 0.00 in0.0 mm 0.01 in0.3 mm
02:18 PM 46.0°F7.8°C 37.4°F3.0°C 72% 17.0 mph NNW27.4 kmh NNW 32.0 mph51.5 kmh 29.90 in1012.5 mb 0.00 in0.0 mm 0.00 in0.0 mm 0.01 in0.3 mm
02:21 PM 45.7°F7.6°C 37.8°F3.2°C 74% 15.0 mph N24.1 kmh N 28.0 mph45.1 kmh 29.90 in1012.5 mb 0.00 in0.0 mm 0.00 in0.0 mm 0.01 in0.3 mm
02:24 PM 45.0°F7.2°C 37.6°F3.1°C 75% 15.0 mph N24.1 kmh N 28.0 mph45.1 kmh 29.90 in1012.5 mb 0.00 in0.0 mm 0.00 in0.0 mm 0.01 in0.3 mm
02:27 PM 44.4°F6.9°C 37.8°F3.2°C 77% 13.0 mph N20.9 kmh N 21.0 mph33.8 kmh 29.90 in1012.5 mb 0.00 in0.0 mm 0.00 in0.0 mm 0.01 in0.3 mm
02:30 PM 44.2°F6.8°C 37.4°F3.0°C 77% 13.0 mph N20.9 kmh N 19.0 mph30.6 kmh 29.89 in1012.2 mb 0.00 in0.0 mm 0.00 in0.0 mm 0.01 in0.3 mm
02:33 PM 44.2°F6.8°C 37.4°F3.0°C 77% 13.0 mph N20.9 kmh N 24.0 mph38.6 kmh 29.90 in1012.5 mb 0.00 in0.0 mm 0.00 in0.0 mm 0.01 in0.3 mm
02:36 PM 44.4°F6.9°C 37.6°F3.1°C 77% 12.0 mph NNW19.3 kmh NNW 24.0 mph38.6 kmh 29.90 in1012.5 mb 0.00 in0.0 mm 0.00 in0.0 mm 0.01 in0.3 mm
02:39 PM 44.4°F6.9°C 37.8°F3.2°C 77% 12.0 mph NNW19.3 kmh NNW 24.0 mph38.6 kmh 29.89 in1012.2 mb 0.00 in0.0 mm 0.00 in0.0 mm 0.01 in0.3 mm
02:42 PM 44.8°F7.1°C 37.6°F3.1°C 76% 12.0 mph NNW19.3 kmh NNW 19.0 mph30.6 kmh 29.89 in1012.2 mb 0.00 in0.0 mm 0.00 in0.0 mm 0.01 in0.3 mm
02:45 PM 45.0°F7.2°C 37.4°F3.0°C 75% 13.0 mph NNW20.9 kmh NNW 28.0 mph45.1 kmh 29.89 in1012.2 mb 0.00 in0.0 mm 0.00 in0.0 mm 0.01 in0.3 mm
02:48 PM 45.3°F7.4°C 37.2°F2.9°C 73% 14.0 mph NNW22.5 kmh NNW 28.0 mph45.1 kmh 29.90 in1012.5 mb 0.00 in0.0 mm 0.00 in0.0 mm 0.01 in0.3 mm
02:51 PM 45.5°F7.5°C 37.4°F3.0°C 73% 16.0 mph NNW25.7 kmh NNW 28.0 mph45.1 kmh 29.90 in1012.5 mb 0.00 in0.0 mm 0.00 in0.0 mm 0.01 in0.3 mm
02:54 PM 45.7°F7.6°C 37.2°F2.9°C 72% 16.0 mph NNW25.7 kmh NNW 27.0 mph43.5 kmh 29.90 in1012.5 mb 0.00 in0.0 mm 0.00 in0.0 mm 0.01 in0.3 mm
02:57 PM 45.7°F7.6°C 36.9°F2.7°C 71% 17.0 mph NNW27.4 kmh NNW 27.0 mph43.5 kmh 29.90 in1012.5 mb 0.00 in0.0 mm 0.00 in0.0 mm 0.01 in0.3 mm
03:00 PM 45.7°F7.6°C 36.5°F2.5°C 70% 18.0 mph NNW29.0 kmh NNW 33.0 mph53.1 kmh 29.90 in1012.5 mb 0.00 in0.0 mm 0.00 in0.0 mm 0.01 in0.3 mm
03:03 PM 45.5°F7.5°C 36.7°F2.6°C 71% 18.0 mph NNW29.0 kmh NNW 33.0 mph53.1 kmh 29.90 in1012.5 mb 0.00 in0.0 mm 0.00 in0.0 mm 0.01 in0.3 mm
03:06 PM 45.5°F7.5°C 36.7°F2.6°C 71% 17.0 mph NNW27.4 kmh NNW 33.0 mph53.1 kmh 29.90 in1012.5 mb 0.00 in0.0 mm 0.00 in0.0 mm 0.01 in0.3 mm
03:09 PM 45.7°F7.6°C 36.7°F2.6°C 71% 15.0 mph NNW24.1 kmh NNW 25.0 mph40.2 kmh 29.90 in1012.5 mb 0.00 in0.0 mm 0.00 in0.0 mm 0.01 in0.3 mm
03:12 PM 45.7°F7.6°C 37.2°F2.9°C 72% 13.0 mph NNW20.9 kmh NNW 23.0 mph37.0 kmh 29.91 in1012.9 mb 0.00 in0.0 mm 0.00 in0.0 mm 0.01 in0.3 mm
03:15 PM 45.7°F7.6°C 37.0°F2.8°C 72% 11.0 mph NNW17.7 kmh NNW 22.0 mph35.4 kmh 29.91 in1012.9 mb 0.00 in0.0 mm 0.00 in0.0 mm 0.01 in0.3 mm
03:18 PM 45.3°F7.4°C 37.2°F2.9°C 73% 10.0 mph NW16.1 kmh NW 22.0 mph35.4 kmh 29.91 in1012.9 mb 0.00 in0.0 mm 0.00 in0.0 mm 0.01 in0.3 mm
03:21 PM 45.3°F7.4°C 37.2°F2.9°C 73% 8.0 mph NW12.9 kmh NW 17.0 mph27.4 kmh 29.91 in1012.9 mb 0.00 in0.0 mm 0.00 in0.0 mm 0.01 in0.3 mm
03:24 PM 45.3°F7.4°C 37.6°F3.1°C 74% 8.0 mph NW12.9 kmh NW 17.0 mph27.4 kmh 29.91 in1012.9 mb 0.00 in0.0 mm 0.00 in0.0 mm 0.01 in0.3 mm
03:27 PM 45.3°F7.4°C 37.6°F3.1°C 74% 8.0 mph NW12.9 kmh NW 19.0 mph30.6 kmh 29.91 in1012.9 mb 0.00 in0.0 mm 0.00 in0.0 mm 0.01 in0.3 mm
03:30 PM 45.3°F7.4°C 37.9°F3.3°C 75% 9.0 mph NW14.5 kmh NW 21.0 mph33.8 kmh 29.91 in1012.9 mb 0.00 in0.0 mm 0.00 in0.0 mm 0.01 in0.3 mm
03:33 PM 45.5°F7.5°C 37.8°F3.2°C 74% 11.0 mph NNW17.7 kmh NNW 21.0 mph33.8 kmh 29.92 in1013.2 mb 0.00 in0.0 mm 0.00 in0.0 mm 0.01 in0.3 mm
03:36 PM 45.3°F7.4°C 38.3°F3.5°C 76% 12.0 mph NNW19.3 kmh NNW 25.0 mph40.2 kmh 29.91 in1012.9 mb 0.00 in0.0 mm 0.00 in0.0 mm 0.01 in0.3 mm
03:39 PM 45.1°F7.3°C 36.7°F2.6°C 72% 15.0 mph NNW24.1 kmh NNW 29.0 mph46.7 kmh 29.92 in1013.2 mb 0.00 in0.0 mm 0.00 in0.0 mm 0.01 in0.3 mm
03:42 PM 45.0°F7.2°C 36.5°F2.5°C 72% 17.0 mph NNW27.4 kmh NNW 29.0 mph46.7 kmh 29.92 in1013.2 mb 0.00 in0.0 mm 0.00 in0.0 mm 0.01 in0.3 mm
03:45 PM 44.8°F7.1°C 36.0°F2.2°C 71% 15.0 mph NNW24.1 kmh NNW 29.0 mph46.7 kmh 29.92 in1013.2 mb 0.00 in0.0 mm 0.00 in0.0 mm 0.01 in0.3 mm
03:48 PM 44.8°F7.1°C 36.1°F2.3°C 72% 12.0 mph NNW19.3 kmh NNW 27.0 mph43.5 kmh 29.92 in1013.2 mb 0.00 in0.0 mm 0.00 in0.0 mm 0.01 in0.3 mm
03:51 PM 44.8°F7.1°C 36.5°F2.5°C 73% 11.0 mph NNW17.7 kmh NNW 20.0 mph32.2 kmh 29.92 in1013.2 mb 0.00 in0.0 mm 0.00 in0.0 mm 0.01 in0.3 mm
03:54 PM 44.8°F7.1°C 36.5°F2.5°C 73% 12.0 mph NNW19.3 kmh NNW 25.0 mph40.2 kmh 29.92 in1013.2 mb 0.00 in0.0 mm 0.00 in0.0 mm 0.01 in0.3 mm
03:57 PM 44.8°F7.1°C 36.7°F2.6°C 73% 13.0 mph NNW20.9 kmh NNW 25.0 mph40.2 kmh 29.93 in1013.5 mb 0.00 in0.0 mm 0.00 in0.0 mm 0.01 in0.3 mm
04:00 PM 45.0°F7.2°C 37.2°F2.9°C 74% 13.0 mph NNW20.9 kmh NNW 25.0 mph40.2 kmh 29.93 in1013.5 mb 0.00 in0.0 mm 0.00 in0.0 mm 0.01 in0.3 mm
04:03 PM 45.1°F7.3°C 37.4°F3.0°C 74% 13.0 mph NNW20.9 kmh NNW 22.0 mph35.4 kmh 29.93 in1013.5 mb 0.00 in0.0 mm 0.00 in0.0 mm 0.01 in0.3 mm
04:06 PM 45.0°F7.2°C 37.2°F2.9°C 74% 14.0 mph NNW22.5 kmh NNW 27.0 mph43.5 kmh 29.93 in1013.5 mb 0.00 in0.0 mm 0.00 in0.0 mm 0.01 in0.3 mm
04:09 PM 43.9°F6.6°C 36.0°F2.2°C 74% 19.0 mph NNW30.6 kmh NNW 37.0 mph59.5 kmh 29.94 in1013.9 mb 0.00 in0.0 mm 0.00 in0.0 mm 0.01 in0.3 mm
04:12 PM 41.9°F5.5°C 34.9°F1.6°C 76% 21.0 mph N33.8 kmh N 37.0 mph59.5 kmh 29.93 in1013.5 mb 0.02 in0.5 mm 0.40 in10.2 mm 0.02 in0.5 mm
04:15 PM 40.8°F4.9°C 34.2°F1.2°C 77% 21.0 mph N33.8 kmh N 37.0 mph59.5 kmh 29.93 in1013.5 mb 0.02 in0.5 mm 0.00 in0.0 mm 0.02 in0.5 mm
04:18 PM 40.5°F4.7°C 34.2°F1.2°C 78% 17.0 mph N27.4 kmh N 37.0 mph59.5 kmh 29.93 in1013.5 mb 0.02 in0.5 mm 0.00 in0.0 mm 0.02 in0.5 mm
04:21 PM 40.3°F4.6°C 34.2°F1.2°C 79% 14.0 mph N22.5 kmh N 29.0 mph46.7 kmh 29.94 in1013.9 mb 0.02 in0.5 mm 0.00 in0.0 mm 0.02 in0.5 mm
04:24 PM 40.1°F4.5°C 34.3°F1.3°C 80% 13.0 mph N20.9 kmh N 20.0 mph32.2 kmh 29.94 in1013.9 mb 0.02 in0.5 mm 0.00 in0.0 mm 0.02 in0.5 mm
04:27 PM 39.9°F4.4°C 34.2°F1.2°C 80% 12.0 mph N19.3 kmh N 20.0 mph32.2 kmh 29.94 in1013.9 mb 0.02 in0.5 mm 0.00 in0.0 mm 0.02 in0.5 mm
04:30 PM 39.9°F4.4°C 34.5°F1.4°C 81% 12.0 mph N19.3 kmh N 20.0 mph32.2 kmh 29.94 in1013.9 mb 0.02 in0.5 mm 0.00 in0.0 mm 0.02 in0.5 mm
04:33 PM 39.7°F4.3°C 34.5°F1.4°C 81% 11.0 mph NNW17.7 kmh NNW 17.0 mph27.4 kmh 29.94 in1013.9 mb 0.02 in0.5 mm 0.00 in0.0 mm 0.02 in0.5 mm
04:36 PM 39.7°F4.3°C 34.7°F1.5°C 82% 10.0 mph NNW16.1 kmh NNW 17.0 mph27.4 kmh 29.94 in1013.9 mb 0.02 in0.5 mm 0.00 in0.0 mm 0.02 in0.5 mm
04:39 PM 39.9°F4.4°C 35.2°F1.8°C 83% 10.0 mph NNW16.1 kmh NNW 16.0 mph25.7 kmh 29.94 in1013.9 mb 0.02 in0.5 mm 0.00 in0.0 mm 0.02 in0.5 mm
04:42 PM 39.7°F4.3°C 35.4°F1.9°C 84% 10.0 mph NNW16.1 kmh NNW 15.0 mph24.1 kmh 29.95 in1014.2 mb 0.02 in0.5 mm 0.00 in0.0 mm 0.02 in0.5 mm
04:45 PM 39.7°F4.3°C 35.4°F1.9°C 84% 10.0 mph NNW16.1 kmh NNW 15.0 mph24.1 kmh 29.95 in1014.2 mb 0.02 in0.5 mm 0.00 in0.0 mm 0.02 in0.5 mm
04:48 PM 39.7°F4.3°C 35.2°F1.8°C 84% 10.0 mph NNW16.1 kmh NNW 15.0 mph24.1 kmh 29.95 in1014.2 mb 0.02 in0.5 mm 0.00 in0.0 mm 0.02 in0.5 mm
04:51 PM 39.7°F4.3°C 35.2°F1.8°C 84% 10.0 mph NNW16.1 kmh NNW 17.0 mph27.4 kmh 29.95 in1014.2 mb 0.02 in0.5 mm 0.00 in0.0 mm 0.02 in0.5 mm
04:54 PM 39.7°F4.3°C 35.2°F1.8°C 84% 10.0 mph NNW16.1 kmh NNW 17.0 mph27.4 kmh 29.95 in1014.2 mb 0.02 in0.5 mm 0.00 in0.0 mm 0.02 in0.5 mm
04:57 PM 39.7°F4.3°C 35.2°F1.8°C 84% 10.0 mph NNW16.1 kmh NNW 17.0 mph27.4 kmh 29.95 in1014.2 mb 0.02 in0.5 mm 0.00 in0.0 mm 0.02 in0.5 mm
05:00 PM 39.7°F4.3°C 35.4°F1.9°C 84% 10.0 mph NNW16.1 kmh NNW 17.0 mph27.4 kmh 29.95 in1014.2 mb 0.02 in0.5 mm 0.00 in0.0 mm 0.02 in0.5 mm
05:03 PM 39.9°F4.4°C 35.4°F1.9°C 84% 10.0 mph NNW16.1 kmh NNW 17.0 mph27.4 kmh 29.95 in1014.2 mb 0.02 in0.5 mm 0.00 in0.0 mm 0.02 in0.5 mm
05:06 PM 39.9°F4.4°C 35.6°F2.0°C 84% 11.0 mph NNW17.7 kmh NNW 20.0 mph32.2 kmh 29.95 in1014.2 mb 0.02 in0.5 mm 0.00 in0.0 mm 0.02 in0.5 mm
05:09 PM 40.3°F4.6°C 35.4°F1.9°C 83% 13.0 mph NNW20.9 kmh NNW 20.0 mph32.2 kmh 29.95 in1014.2 mb 0.02 in0.5 mm 0.00 in0.0 mm 0.02 in0.5 mm
05:12 PM 40.3°F4.6°C 35.2°F1.8°C 82% 14.0 mph NNW22.5 kmh NNW 23.0 mph37.0 kmh 29.95 in1014.2 mb 0.00 in0.0 mm 0.00 in0.0 mm 0.02 in0.5 mm
05:15 PM 40.3°F4.6°C 35.2°F1.8°C 82% 13.0 mph NNW20.9 kmh NNW 23.0 mph37.0 kmh 29.96 in1014.6 mb 0.00 in0.0 mm 0.00 in0.0 mm 0.02 in0.5 mm
05:18 PM 40.3°F4.6°C 35.2°F1.8°C 82% 12.0 mph NNW19.3 kmh NNW 23.0 mph37.0 kmh 29.96 in1014.6 mb 0.00 in0.0 mm 0.00 in0.0 mm 0.02 in0.5 mm
05:21 PM 40.3°F4.6°C 35.2°F1.8°C 82% 12.0 mph NNW19.3 kmh NNW 23.0 mph37.0 kmh 29.96 in1014.6 mb 0.00 in0.0 mm 0.00 in0.0 mm 0.02 in0.5 mm
05:24 PM 40.3°F4.6°C 35.2°F1.8°C 82% 13.0 mph NNW20.9 kmh NNW 25.0 mph40.2 kmh 29.96 in1014.6 mb 0.00 in0.0 mm 0.00 in0.0 mm 0.02 in0.5 mm
05:27 PM 40.5°F4.7°C 35.4°F1.9°C 82% 15.0 mph NNW24.1 kmh NNW 29.0 mph46.7 kmh 29.96 in1014.6 mb 0.00 in0.0 mm 0.00 in0.0 mm 0.02 in0.5 mm
05:30 PM 40.5°F4.7°C 35.4°F1.9°C 82% 16.0 mph NNW25.7 kmh NNW 29.0 mph46.7 kmh 29.96 in1014.6 mb 0.00 in0.0 mm 0.00 in0.0 mm 0.02 in0.5 mm
05:33 PM 40.3°F4.6°C 35.2°F1.8°C 82% 16.0 mph NNW25.7 kmh NNW 29.0 mph46.7 kmh 29.96 in1014.6 mb 0.00 in0.0 mm 0.00 in0.0 mm 0.02 in0.5 mm
05:36 PM 40.3°F4.6°C 35.2°F1.8°C 82% 14.0 mph NNW22.5 kmh NNW 26.0 mph41.8 kmh 29.96 in1014.6 mb 0.00 in0.0 mm 0.00 in0.0 mm 0.02 in0.5 mm
05:39 PM 40.3°F4.6°C 35.1°F1.7°C 82% 13.0 mph NNW20.9 kmh NNW 23.0 mph37.0 kmh 29.96 in1014.6 mb 0.00 in0.0 mm 0.00 in0.0 mm 0.02 in0.5 mm
05:42 PM 40.1°F4.5°C 35.1°F1.7°C 82% 13.0 mph NNW20.9 kmh NNW 26.0 mph41.8 kmh 29.96 in1014.6 mb 0.00 in0.0 mm 0.00 in0.0 mm 0.02 in0.5 mm
05:45 PM 40.1°F4.5°C 35.1°F1.7°C 82% 14.0 mph NNW22.5 kmh NNW 26.0 mph41.8 kmh 29.97 in1014.9 mb 0.00 in0.0 mm 0.00 in0.0 mm 0.02 in0.5 mm
05:48 PM 40.1°F4.5°C 35.1°F1.7°C 82% 14.0 mph NNW22.5 kmh NNW 26.0 mph41.8 kmh 29.97 in1014.9 mb 0.00 in0.0 mm 0.00 in0.0 mm 0.02 in0.5 mm
05:51 PM 39.9°F4.4°C 34.7°F1.5°C 81% 15.0 mph NNW24.1 kmh NNW 25.0 mph40.2 kmh 29.97 in1014.9 mb 0.00 in0.0 mm 0.00 in0.0 mm 0.02 in0.5 mm
05:54 PM 39.9°F4.4°C 34.7°F1.5°C 81% 15.0 mph NNW24.1 kmh NNW 25.0 mph40.2 kmh 29.97 in1014.9 mb 0.00 in0.0 mm 0.00 in0.0 mm 0.02 in0.5 mm
05:57 PM 39.9°F4.4°C 34.7°F1.5°C 81% 15.0 mph NNW24.1 kmh NNW 25.0 mph40.2 kmh 29.97 in1014.9 mb 0.00 in0.0 mm 0.00 in0.0 mm 0.02 in0.5 mm
06:00 PM 39.9°F4.4°C 34.7°F1.5°C 81% 15.0 mph NNW24.1 kmh NNW 25.0 mph40.2 kmh 29.97 in1014.9 mb 0.00 in0.0 mm 0.00 in0.0 mm 0.02 in0.5 mm
06:03 PM 39.9°F4.4°C 34.7°F1.5°C 81% 16.0 mph NNW25.7 kmh NNW 25.0 mph40.2 kmh 29.97 in1014.9 mb 0.00 in0.0 mm 0.00 in0.0 mm 0.02 in0.5 mm
06:06 PM 39.9°F4.4°C 34.5°F1.4°C 81% 17.0 mph NNW27.4 kmh NNW 25.0 mph40.2 kmh 29.97 in1014.9 mb 0.00 in0.0 mm 0.00 in0.0 mm 0.02 in0.5 mm
06:09 PM 39.9°F4.4°C 34.7°F1.5°C 81% 17.0 mph NNW27.4 kmh NNW 31.0 mph49.9 kmh 29.98 in1015.2 mb 0.00 in0.0 mm 0.00 in0.0 mm 0.02 in0.5 mm
06:12 PM 39.9°F4.4°C 34.7°F1.5°C 81% 16.0 mph NNW25.7 kmh NNW 31.0 mph49.9 kmh 29.98 in1015.2 mb 0.00 in0.0 mm 0.00 in0.0 mm 0.02 in0.5 mm
06:15 PM 39.9°F4.4°C 34.5°F1.4°C 81% 16.0 mph N25.7 kmh N 31.0 mph49.9 kmh 29.98 in1015.2 mb 0.00 in0.0 mm 0.00 in0.0 mm 0.02 in0.5 mm
06:18 PM 39.9°F4.4°C 34.5°F1.4°C 81% 15.0 mph N24.1 kmh N 23.0 mph37.0 kmh 29.98 in1015.2 mb 0.00 in0.0 mm 0.00 in0.0 mm 0.02 in0.5 mm
06:21 PM 39.9°F4.4°C 34.5°F1.4°C 81% 14.0 mph N22.5 kmh N 23.0 mph37.0 kmh 29.98 in1015.2 mb 0.00 in0.0 mm 0.00 in0.0 mm 0.02 in0.5 mm
06:24 PM 39.7°F4.3°C 34.5°F1.4°C 81% 14.0 mph NNW22.5 kmh NNW 22.0 mph35.4 kmh 29.98 in1015.2 mb 0.00 in0.0 mm 0.00 in0.0 mm 0.02 in0.5 mm
06:27 PM 39.6°F4.2°C 34.2°F1.2°C 81% 14.0 mph NNW22.5 kmh NNW 22.0 mph35.4 kmh 29.99 in1015.6 mb 0.00 in0.0 mm 0.00 in0.0 mm 0.02 in0.5 mm
06:30 PM 39.6°F4.2°C 34.2°F1.2°C 81% 13.0 mph NNW20.9 kmh NNW 22.0 mph35.4 kmh 29.99 in1015.6 mb 0.00 in0.0 mm 0.00 in0.0 mm 0.02 in0.5 mm
06:33 PM 39.4°F4.1°C 34.0°F1.1°C 81% 13.0 mph NNW20.9 kmh NNW 21.0 mph33.8 kmh 29.99 in1015.6 mb 0.00 in0.0 mm 0.00 in0.0 mm 0.02 in0.5 mm
06:36 PM 39.2°F4.0°C 33.8°F1.0°C 81% 12.0 mph NNW19.3 kmh NNW 21.0 mph33.8 kmh 29.99 in1015.6 mb 0.00 in0.0 mm 0.00 in0.0 mm 0.02 in0.5 mm
06:39 PM 39.0°F3.9°C 33.8°F1.0°C 81% 12.0 mph NNW19.3 kmh NNW 21.0 mph33.8 kmh 29.99 in1015.6 mb 0.00 in0.0 mm 0.00 in0.0 mm 0.02 in0.5 mm
06:42 PM 39.0°F3.9°C 34.0°F1.1°C 82% 12.0 mph NNW19.3 kmh NNW 19.0 mph30.6 kmh 29.99 in1015.6 mb 0.00 in0.0 mm 0.00 in0.0 mm 0.02 in0.5 mm
06:45 PM 38.8°F3.8°C 33.8°F1.0°C 82% 11.0 mph NNW17.7 kmh NNW 19.0 mph30.6 kmh 30.00 in1015.9 mb 0.00 in0.0 mm 0.00 in0.0 mm 0.02 in0.5 mm
06:48 PM 38.8°F3.8°C 33.8°F1.0°C 82% 11.0 mph NNW17.7 kmh NNW 22.0 mph35.4 kmh 30.00 in1015.9 mb 0.00 in0.0 mm 0.00 in0.0 mm 0.02 in0.5 mm
06:51 PM 38.8°F3.8°C 33.8°F1.0°C 82% 11.0 mph NNW17.7 kmh NNW 22.0 mph35.4 kmh 30.00 in1015.9 mb 0.00 in0.0 mm 0.00 in0.0 mm 0.02 in0.5 mm
06:54 PM 38.7°F3.7°C 33.6°F0.9°C 82% 11.0 mph NNW17.7 kmh NNW 22.0 mph35.4 kmh 30.00 in1015.9 mb 0.00 in0.0 mm 0.00 in0.0 mm 0.02 in0.5 mm
06:57 PM 38.7°F3.7°C 33.8°F1.0°C 83% 11.0 mph NNW17.7 kmh NNW 18.0 mph29.0 kmh 30.00 in1015.9 mb 0.00 in0.0 mm 0.00 in0.0 mm 0.02 in0.5 mm
07:00 PM 38.7°F3.7°C 33.8°F1.0°C 83% 11.0 mph NNW17.7 kmh NNW 16.0 mph25.7 kmh 30.00 in1015.9 mb 0.00 in0.0 mm 0.00 in0.0 mm 0.02 in0.5 mm
07:03 PM 38.7°F3.7°C 33.8°F1.0°C 83% 11.0 mph NNW17.7 kmh NNW 17.0 mph27.4 kmh 30.00 in1015.9 mb 0.00 in0.0 mm 0.00 in0.0 mm 0.02 in0.5 mm
07:06 PM 38.7°F3.7°C 33.8°F1.0°C 83% 11.0 mph NNW17.7 kmh NNW 21.0 mph33.8 kmh 30.00 in1015.9 mb 0.00 in0.0 mm 0.00 in0.0 mm 0.02 in0.5 mm
07:09 PM 38.7°F3.7°C 33.8°F1.0°C 83% 11.0 mph NNW17.7 kmh NNW 21.0 mph33.8 kmh 30.01 in1016.3 mb 0.00 in0.0 mm 0.00 in0.0 mm 0.02 in0.5 mm
07:12 PM 38.7°F3.7°C 33.8°F1.0°C 83% 11.0 mph NNW17.7 kmh NNW 21.0 mph33.8 kmh 30.01 in1016.3 mb 0.00 in0.0 mm 0.00 in0.0 mm 0.02 in0.5 mm
07:15 PM 38.7°F3.7°C 34.2°F1.2°C 84% 10.0 mph NNW16.1 kmh NNW 20.0 mph32.2 kmh 30.01 in1016.3 mb 0.00 in0.0 mm 0.00 in0.0 mm 0.02 in0.5 mm
07:18 PM 38.7°F3.7°C 34.2°F1.2°C 84% 11.0 mph NNW17.7 kmh NNW 19.0 mph30.6 kmh 30.01 in1016.3 mb 0.00 in0.0 mm 0.00 in0.0 mm 0.02 in0.5 mm
07:21 PM 38.7°F3.7°C 34.3°F1.3°C 84% 12.0 mph NNW19.3 kmh NNW 21.0 mph33.8 kmh 30.01 in1016.3 mb 0.00 in0.0 mm 0.00 in0.0 mm 0.02 in0.5 mm
07:24 PM 38.7°F3.7°C 34.3°F1.3°C 84% 14.0 mph NNW22.5 kmh NNW 22.0 mph35.4 kmh 30.01 in1016.3 mb 0.00 in0.0 mm 0.00 in0.0 mm 0.02 in0.5 mm
07:27 PM 38.7°F3.7°C 34.3°F1.3°C 84% 15.0 mph NNW24.1 kmh NNW 22.0 mph35.4 kmh 30.01 in1016.3 mb 0.00 in0.0 mm 0.00 in0.0 mm 0.02 in0.5 mm
07:30 PM 38.7°F3.7°C 34.3°F1.3°C 84% 15.0 mph NNW24.1 kmh NNW 22.0 mph35.4 kmh 30.01 in1016.3 mb 0.00 in0.0 mm 0.00 in0.0 mm 0.02 in0.5 mm
07:33 PM 38.7°F3.7°C 34.3°F1.3°C 84% 14.0 mph NNW22.5 kmh NNW 22.0 mph35.4 kmh 30.01 in1016.3 mb 0.00 in0.0 mm 0.00 in0.0 mm 0.02 in0.5 mm
07:36 PM 38.7°F3.7°C 34.3°F1.3°C 84% 14.0 mph NNW22.5 kmh NNW 21.0 mph33.8 kmh 30.01 in1016.3 mb 0.00 in0.0 mm 0.00 in0.0 mm 0.02 in0.5 mm
07:39 PM 38.7°F3.7°C 34.3°F1.3°C 84% 14.0 mph NNW22.5 kmh NNW 21.0 mph33.8 kmh 30.02 in1016.6 mb 0.00 in0.0 mm 0.00 in0.0 mm 0.02 in0.5 mm
07:42 PM 38.7°F3.7°C 34.0°F1.1°C 83% 14.0 mph NNW22.5 kmh NNW 21.0 mph33.8 kmh 30.02 in1016.6 mb 0.00 in0.0 mm 0.00 in0.0 mm 0.02 in0.5 mm
07:45 PM 38.7°F3.7°C 34.3°F1.3°C 84% 14.0 mph NNW22.5 kmh NNW 22.0 mph35.4 kmh 30.02 in1016.6 mb 0.00 in0.0 mm 0.00 in0.0 mm 0.02 in0.5 mm
07:48 PM 38.7°F3.7°C 34.3°F1.3°C 84% 13.0 mph NNW20.9 kmh NNW 22.0 mph35.4 kmh 30.02 in1016.6 mb 0.00 in0.0 mm 0.00 in0.0 mm 0.02 in0.5 mm
07:51 PM 38.7°F3.7°C 34.3°F1.3°C 84% 13.0 mph NNW20.9 kmh NNW 22.0 mph35.4 kmh 30.02 in1016.6 mb 0.00 in0.0 mm 0.00 in0.0 mm 0.02 in0.5 mm
07:54 PM 38.7°F3.7°C 34.3°F1.3°C 84% 13.0 mph NNW20.9 kmh NNW 21.0 mph33.8 kmh 30.02 in1016.6 mb 0.00 in0.0 mm 0.00 in0.0 mm 0.02 in0.5 mm
07:57 PM 38.7°F3.7°C 34.3°F1.3°C 84% 14.0 mph NNW22.5 kmh NNW 21.0 mph33.8 kmh 30.02 in1016.6 mb 0.00 in0.0 mm 0.00 in0.0 mm 0.02 in0.5 mm
08:00 PM 38.8°F3.8°C 34.3°F1.3°C 84% 14.0 mph NNW22.5 kmh NNW 20.0 mph32.2 kmh 30.03 in1016.9 mb 0.00 in0.0 mm 0.00 in0.0 mm 0.02 in0.5 mm
08:03 PM 38.7°F3.7°C 34.0°F1.1°C 83% 13.0 mph NNW20.9 kmh NNW 21.0 mph33.8 kmh 30.03 in1016.9 mb 0.00 in0.0 mm 0.00 in0.0 mm 0.02 in0.5 mm
08:06 PM 38.7°F3.7°C 34.0°F1.1°C 83% 13.0 mph NNW20.9 kmh NNW 21.0 mph33.8 kmh 30.03 in1016.9 mb 0.00 in0.0 mm 0.00 in0.0 mm 0.02 in0.5 mm
08:09 PM 38.7°F3.7°C 33.8°F1.0°C 83% 12.0 mph NNW19.3 kmh NNW 21.0 mph33.8 kmh 30.03 in1016.9 mb 0.00 in0.0 mm 0.00 in0.0 mm 0.02 in0.5 mm
08:12 PM 38.5°F3.6°C 33.8°F1.0°C 83% 12.0 mph NNW19.3 kmh NNW 21.0 mph33.8 kmh 30.03 in1016.9 mb 0.00 in0.0 mm 0.00 in0.0 mm 0.02 in0.5 mm
08:15 PM 38.5°F3.6°C 34.2°F1.2°C 84% 11.0 mph NNW17.7 kmh NNW 17.0 mph27.4 kmh 30.03 in1016.9 mb 0.00 in0.0 mm 0.00 in0.0 mm 0.02 in0.5 mm
08:18 PM 38.5°F3.6°C 34.0°F1.1°C 84% 10.0 mph NNW16.1 kmh NNW 17.0 mph27.4 kmh 30.03 in1016.9 mb 0.00 in0.0 mm 0.00 in0.0 mm 0.02 in0.5 mm
08:21 PM 38.1°F3.4°C 33.8°F1.0°C 84% 10.0 mph NNW16.1 kmh NNW 17.0 mph27.4 kmh 30.04 in1017.3 mb 0.00 in0.0 mm 0.00 in0.0 mm 0.02 in0.5 mm
08:24 PM 38.1°F3.4°C 33.8°F1.0°C 84% 10.0 mph NNW16.1 kmh NNW 17.0 mph27.4 kmh 30.04 in1017.3 mb 0.00 in0.0 mm 0.00 in0.0 mm 0.02 in0.5 mm
08:27 PM 38.1°F3.4°C 33.8°F1.0°C 84% 11.0 mph NNW17.7 kmh NNW 20.0 mph32.2 kmh 30.04 in1017.3 mb 0.00 in0.0 mm 0.00 in0.0 mm 0.02 in0.5 mm
08:30 PM 38.1°F3.4°C 33.8°F1.0°C 84% 12.0 mph NNW19.3 kmh NNW 20.0 mph32.2 kmh 30.04 in1017.3 mb 0.00 in0.0 mm 0.00 in0.0 mm 0.02 in0.5 mm
08:33 PM 38.1°F3.4°C 33.8°F1.0°C 84% 13.0 mph NNW20.9 kmh NNW 23.0 mph37.0 kmh 30.04 in1017.3 mb 0.00 in0.0 mm 0.00 in0.0 mm 0.02 in0.5 mm
08:36 PM 38.3°F3.5°C 33.8°F1.0°C 84% 13.0 mph NNW20.9 kmh NNW 23.0 mph37.0 kmh 30.04 in1017.3 mb 0.00 in0.0 mm 0.00 in0.0 mm 0.02 in0.5 mm
08:39 PM 38.3°F3.5°C 33.8°F1.0°C 84% 14.0 mph NNW22.5 kmh NNW 23.0 mph37.0 kmh 30.04 in1017.3 mb 0.00 in0.0 mm 0.00 in0.0 mm 0.02 in0.5 mm
08:42 PM 38.3°F3.5°C 33.8°F1.0°C 84% 13.0 mph NNW20.9 kmh NNW 19.0 mph30.6 kmh 30.05 in1017.6 mb 0.00 in0.0 mm 0.00 in0.0 mm 0.02 in0.5 mm
08:45 PM 38.5°F3.6°C 34.0°F1.1°C 84% 13.0 mph NNW20.9 kmh NNW 21.0 mph33.8 kmh 30.05 in1017.6 mb 0.00 in0.0 mm 0.00 in0.0 mm 0.02 in0.5 mm
08:48 PM 38.5°F3.6°C 34.0°F1.1°C 84% 14.0 mph NNW22.5 kmh NNW 25.0 mph40.2 kmh 30.05 in1017.6 mb 0.00 in0.0 mm 0.00 in0.0 mm 0.02 in0.5 mm
08:51 PM 38.5°F3.6°C 34.0°F1.1°C 84% 14.0 mph NNW22.5 kmh NNW 25.0 mph40.2 kmh 30.05 in1017.6 mb 0.00 in0.0 mm 0.00 in0.0 mm 0.02 in0.5 mm
08:54 PM 38.5°F3.6°C 34.0°F1.1°C 84% 13.0 mph NNW20.9 kmh NNW 25.0 mph40.2 kmh 30.05 in1017.6 mb 0.00 in0.0 mm 0.00 in0.0 mm 0.02 in0.5 mm
08:57 PM 38.3°F3.5°C 33.8°F1.0°C 84% 12.0 mph NNW19.3 kmh NNW 22.0 mph35.4 kmh 30.05 in1017.6 mb 0.00 in0.0 mm 0.00 in0.0 mm 0.02 in0.5 mm
09:00 PM 38.5°F3.6°C 34.0°F1.1°C 84% 13.0 mph NNW20.9 kmh NNW 22.0 mph35.4 kmh 30.05 in1017.6 mb 0.00 in0.0 mm 0.00 in0.0 mm 0.02 in0.5 mm
09:03 PM 38.3°F3.5°C 33.8°F1.0°C 84% 13.0 mph NNW20.9 kmh NNW 22.0 mph35.4 kmh 30.05 in1017.6 mb 0.00 in0.0 mm 0.00 in0.0 mm 0.02 in0.5 mm
09:06 PM 38.3°F3.5°C 33.8°F1.0°C 84% 13.0 mph NNW20.9 kmh NNW 22.0 mph35.4 kmh 30.05 in1017.6 mb 0.00 in0.0 mm 0.00 in0.0 mm 0.02 in0.5 mm
09:09 PM 38.3°F3.5°C 33.8°F1.0°C 84% 13.0 mph NNW20.9 kmh NNW 21.0 mph33.8 kmh 30.06 in1017.9 mb 0.00 in0.0 mm 0.00 in0.0 mm 0.02 in0.5 mm
09:12 PM 38.1°F3.4°C 33.8°F1.0°C 84% 13.0 mph NNW20.9 kmh NNW 21.0 mph33.8 kmh 30.06 in1017.9 mb 0.00 in0.0 mm 0.00 in0.0 mm 0.02 in0.5 mm
09:15 PM 38.3°F3.5°C 34.2°F1.2°C 85% 13.0 mph NNW20.9 kmh NNW 21.0 mph33.8 kmh 30.06 in1017.9 mb 0.00 in0.0 mm 0.00 in0.0 mm 0.02 in0.5 mm
09:18 PM 38.3°F3.5°C 34.2°F1.2°C 85% 14.0 mph NNW22.5 kmh NNW 21.0 mph33.8 kmh 30.06 in1017.9 mb 0.00 in0.0 mm 0.00 in0.0 mm 0.02 in0.5 mm
09:21 PM 38.3°F3.5°C 34.2°F1.2°C 85% 14.0 mph NNW22.5 kmh NNW 21.0 mph33.8 kmh 30.06 in1017.9 mb 0.00 in0.0 mm 0.00 in0.0 mm 0.02 in0.5 mm
09:24 PM 38.3°F3.5°C 33.8°F1.0°C 84% 14.0 mph NNW22.5 kmh NNW 21.0 mph33.8 kmh 30.07 in1018.3 mb 0.00 in0.0 mm 0.00 in0.0 mm 0.02 in0.5 mm
09:27 PM 38.3°F3.5°C 33.8°F1.0°C 84% 14.0 mph NNW22.5 kmh NNW 20.0 mph32.2 kmh 30.07 in1018.3 mb 0.00 in0.0 mm 0.00 in0.0 mm 0.02 in0.5 mm
09:30 PM 38.3°F3.5°C 34.2°F1.2°C 85% 14.0 mph NNW22.5 kmh NNW 21.0 mph33.8 kmh 30.07 in1018.3 mb 0.00 in0.0 mm 0.00 in0.0 mm 0.02 in0.5 mm
09:33 PM 38.1°F3.4°C 33.8°F1.0°C 84% 14.0 mph NNW22.5 kmh NNW 21.0 mph33.8 kmh 30.07 in1018.3 mb 0.00 in0.0 mm 0.00 in0.0 mm 0.02 in0.5 mm
09:36 PM 38.1°F3.4°C 33.6°F0.9°C 84% 13.0 mph NNW20.9 kmh NNW 21.0 mph33.8 kmh 30.07 in1018.3 mb 0.00 in0.0 mm 0.00 in0.0 mm 0.02 in0.5 mm
09:39 PM 37.9°F3.3°C 33.6°F0.9°C 84% 13.0 mph NNW20.9 kmh NNW 21.0 mph33.8 kmh 30.08 in1018.6 mb 0.00 in0.0 mm 0.00 in0.0 mm 0.02 in0.5 mm
09:42 PM 37.9°F3.3°C 33.4°F0.8°C 84% 12.0 mph NNW19.3 kmh NNW 21.0 mph33.8 kmh 30.08 in1018.6 mb 0.00 in0.0 mm 0.00 in0.0 mm 0.02 in0.5 mm
09:45 PM 37.8°F3.2°C 33.6°F0.9°C 85% 12.0 mph NNW19.3 kmh NNW 21.0 mph33.8 kmh 30.08 in1018.6 mb 0.00 in0.0 mm 0.00 in0.0 mm 0.02 in0.5 mm
09:48 PM 37.8°F3.2°C 33.4°F0.8°C 84% 11.0 mph NNW17.7 kmh NNW 18.0 mph29.0 kmh 30.08 in1018.6 mb 0.00 in0.0 mm 0.00 in0.0 mm 0.02 in0.5 mm
09:51 PM 37.8°F3.2°C 33.6°F0.9°C 85% 10.0 mph NNW16.1 kmh NNW 18.0 mph29.0 kmh 30.08 in1018.6 mb 0.00 in0.0 mm 0.00 in0.0 mm 0.02 in0.5 mm
09:54 PM 37.6°F3.1°C 33.4°F0.8°C 85% 11.0 mph NNW17.7 kmh NNW 18.0 mph29.0 kmh 30.08 in1018.6 mb 0.00 in0.0 mm 0.00 in0.0 mm 0.02 in0.5 mm
09:57 PM 37.6°F3.1°C 33.4°F0.8°C 85% 12.0 mph NNW19.3 kmh NNW 18.0 mph29.0 kmh 30.08 in1018.6 mb 0.00 in0.0 mm 0.00 in0.0 mm 0.02 in0.5 mm
10:00 PM 37.6°F3.1°C 33.4°F0.8°C 85% 12.0 mph NNW19.3 kmh NNW 20.0 mph32.2 kmh 30.09 in1019.0 mb 0.00 in0.0 mm 0.00 in0.0 mm 0.02 in0.5 mm
10:03 PM 37.6°F3.1°C 33.4°F0.8°C 85% 13.0 mph NNW20.9 kmh NNW 20.0 mph32.2 kmh 30.09 in1019.0 mb 0.00 in0.0 mm 0.00 in0.0 mm 0.02 in0.5 mm
10:06 PM 37.6°F3.1°C 33.4°F0.8°C 85% 13.0 mph NNW20.9 kmh NNW 21.0 mph33.8 kmh 30.09 in1019.0 mb 0.00 in0.0 mm 0.00 in0.0 mm 0.02 in0.5 mm
10:09 PM 37.6°F3.1°C 33.6°F0.9°C 86% 13.0 mph NNW20.9 kmh NNW 21.0 mph33.8 kmh 30.09 in1019.0 mb 0.00 in0.0 mm 0.00 in0.0 mm 0.02 in0.5 mm
10:12 PM 37.6°F3.1°C 33.6°F0.9°C 86% 13.0 mph NNW20.9 kmh NNW 23.0 mph37.0 kmh 30.09 in1019.0 mb 0.00 in0.0 mm 0.00 in0.0 mm 0.02 in0.5 mm
10:15 PM 37.4°F3.0°C 33.6°F0.9°C 86% 13.0 mph NNW20.9 kmh NNW 23.0 mph37.0 kmh 30.09 in1019.0 mb 0.00 in0.0 mm 0.00 in0.0 mm 0.02 in0.5 mm
10:18 PM 37.4°F3.0°C 33.6°F0.9°C 86% 13.0 mph NNW20.9 kmh NNW 23.0 mph37.0 kmh 30.09 in1019.0 mb 0.00 in0.0 mm 0.00 in0.0 mm 0.02 in0.5 mm
10:21 PM 37.2°F2.9°C 33.4°F0.8°C 86% 13.0 mph NNW20.9 kmh NNW 23.0 mph37.0 kmh 30.09 in1019.0 mb 0.00 in0.0 mm 0.00 in0.0 mm 0.02 in0.5 mm
10:24 PM 37.4°F3.0°C 33.6°F0.9°C 86% 13.0 mph NNW20.9 kmh NNW 21.0 mph33.8 kmh 30.09 in1019.0 mb 0.00 in0.0 mm 0.00 in0.0 mm 0.02 in0.5 mm
10:27 PM 37.4°F3.0°C 33.6°F0.9°C 86% 13.0 mph NNW20.9 kmh NNW 21.0 mph33.8 kmh 30.10 in1019.3 mb 0.00 in0.0 mm 0.00 in0.0 mm 0.02 in0.5 mm
10:30 PM 37.4°F3.0°C 33.6°F0.9°C 86% 13.0 mph NNW20.9 kmh NNW 20.0 mph32.2 kmh 30.10 in1019.3 mb 0.00 in0.0 mm 0.00 in0.0 mm 0.02 in0.5 mm
10:33 PM 37.6°F3.1°C 33.6°F0.9°C 86% 13.0 mph NNW20.9 kmh NNW 21.0 mph33.8 kmh 30.10 in1019.3 mb 0.00 in0.0 mm 0.00 in0.0 mm 0.02 in0.5 mm
10:36 PM 37.6°F3.1°C 33.6°F0.9°C 86% 14.0 mph NNW22.5 kmh NNW 21.0 mph33.8 kmh 30.10 in1019.3 mb 0.00 in0.0 mm 0.00 in0.0 mm 0.02 in0.5 mm
10:39 PM 37.4°F3.0°C 33.6°F0.9°C 86% 14.0 mph NNW22.5 kmh NNW 22.0 mph35.4 kmh 30.10 in1019.3 mb 0.00 in0.0 mm 0.00 in0.0 mm 0.02 in0.5 mm
10:42 PM 37.4°F3.0°C 33.6°F0.9°C 86% 14.0 mph NNW22.5 kmh NNW 22.0 mph35.4 kmh 30.10 in1019.3 mb 0.00 in0.0 mm 0.00 in0.0 mm 0.02 in0.5 mm
10:45 PM 37.4°F3.0°C 33.6°F0.9°C 86% 14.0 mph NNW22.5 kmh NNW 22.0 mph35.4 kmh 30.10 in1019.3 mb 0.00 in0.0 mm 0.00 in0.0 mm 0.02 in0.5 mm
10:48 PM 37.4°F3.0°C 33.8°F1.0°C 87% 13.0 mph NNW20.9 kmh NNW 21.0 mph33.8 kmh 30.10 in1019.3 mb 0.00 in0.0 mm 0.00 in0.0 mm 0.02 in0.5 mm
10:51 PM 37.2°F2.9°C 33.8°F1.0°C 87% 13.0 mph NNW20.9 kmh NNW 21.0 mph33.8 kmh 30.10 in1019.3 mb 0.00 in0.0 mm 0.00 in0.0 mm 0.02 in0.5 mm
10:54 PM 37.2°F2.9°C 33.8°F1.0°C 87% 14.0 mph NNW22.5 kmh NNW 21.0 mph33.8 kmh 30.10 in1019.3 mb 0.00 in0.0 mm 0.00 in0.0 mm 0.02 in0.5 mm
10:57 PM 37.2°F2.9°C 33.8°F1.0°C 87% 14.0 mph NNW22.5 kmh NNW 21.0 mph33.8 kmh 30.11 in1019.6 mb 0.00 in0.0 mm 0.00 in0.0 mm 0.02 in0.5 mm
11:00 PM 37.2°F2.9°C 33.8°F1.0°C 87% 14.0 mph NNW22.5 kmh NNW 21.0 mph33.8 kmh 30.11 in1019.6 mb 0.00 in0.0 mm 0.00 in0.0 mm 0.02 in0.5 mm
11:03 PM 37.2°F2.9°C 33.8°F1.0°C 87% 14.0 mph NNW22.5 kmh NNW 21.0 mph33.8 kmh 30.11 in1019.6 mb 0.00 in0.0 mm 0.00 in0.0 mm 0.02 in0.5 mm
11:06 PM 37.2°F2.9°C 35.2°F1.8°C 92% 13.0 mph NNW20.9 kmh NNW 20.0 mph32.2 kmh 30.11 in1019.6 mb 0.00 in0.0 mm 0.00 in0.0 mm 0.02 in0.5 mm
11:09 PM 37.2°F2.9°C 33.8°F1.0°C 87% 13.0 mph NNW20.9 kmh NNW 21.0 mph33.8 kmh 30.11 in1019.6 mb 0.00 in0.0 mm 0.00 in0.0 mm 0.02 in0.5 mm
11:12 PM 37.2°F2.9°C 33.6°F0.9°C 87% 13.0 mph NNW20.9 kmh NNW 21.0 mph33.8 kmh 30.11 in1019.6 mb 0.00 in0.0 mm 0.00 in0.0 mm 0.02 in0.5 mm
11:15 PM 37.2°F2.9°C 33.6°F0.9°C 87% 13.0 mph NNW20.9 kmh NNW 21.0 mph33.8 kmh 30.12 in1020.0 mb 0.00 in0.0 mm 0.00 in0.0 mm 0.02 in0.5 mm
11:18 PM 37.2°F2.9°C 33.6°F0.9°C 87% 13.0 mph NNW20.9 kmh NNW 21.0 mph33.8 kmh 30.12 in1020.0 mb 0.00 in0.0 mm 0.00 in0.0 mm 0.02 in0.5 mm
11:21 PM 37.0°F2.8°C 33.6°F0.9°C 87% 12.0 mph NNW19.3 kmh NNW 18.0 mph29.0 kmh 30.12 in1020.0 mb 0.00 in0.0 mm 0.00 in0.0 mm 0.02 in0.5 mm
11:24 PM 37.0°F2.8°C 33.6°F0.9°C 87% 12.0 mph NNW19.3 kmh NNW 18.0 mph29.0 kmh 30.12 in1020.0 mb 0.00 in0.0 mm 0.00 in0.0 mm 0.02 in0.5 mm
11:27 PM 37.0°F2.8°C 33.8°F1.0°C 88% 12.0 mph NNW19.3 kmh NNW 21.0 mph33.8 kmh 30.12 in1020.0 mb 0.00 in0.0 mm 0.00 in0.0 mm 0.02 in0.5 mm
11:30 PM 37.0°F2.8°C 33.8°F1.0°C 88% 13.0 mph NNW20.9 kmh NNW 23.0 mph37.0 kmh 30.12 in1020.0 mb 0.00 in0.0 mm 0.00 in0.0 mm 0.02 in0.5 mm
11:33 PM 37.0°F2.8°C 33.8°F1.0°C 88% 14.0 mph NNW22.5 kmh NNW 23.0 mph37.0 kmh 30.12 in1020.0 mb 0.00 in0.0 mm 0.00 in0.0 mm 0.02 in0.5 mm
11:36 PM 37.0°F2.8°C 33.8°F1.0°C 88% 15.0 mph NNW24.1 kmh NNW 23.0 mph37.0 kmh 30.12 in1020.0 mb 0.00 in0.0 mm 0.00 in0.0 mm 0.02 in0.5 mm
11:39 PM 37.0°F2.8°C 33.8°F1.0°C 88% 15.0 mph NNW24.1 kmh NNW 24.0 mph38.6 kmh 30.12 in1020.0 mb 0.00 in0.0 mm 0.00 in0.0 mm 0.02 in0.5 mm
11:42 PM 37.2°F2.9°C 34.0°F1.1°C 88% 15.0 mph NNW24.1 kmh NNW 24.0 mph38.6 kmh 30.12 in1020.0 mb 0.00 in0.0 mm 0.00 in0.0 mm 0.02 in0.5 mm
11:45 PM 37.2°F2.9°C 34.0°F1.1°C 88% 16.0 mph NNW25.7 kmh NNW 24.0 mph38.6 kmh 30.12 in1020.0 mb 0.00 in0.0 mm 0.00 in0.0 mm 0.02 in0.5 mm
11:48 PM 37.2°F2.9°C 34.2°F1.2°C 88% 16.0 mph NNW25.7 kmh NNW 24.0 mph38.6 kmh 30.13 in1020.3 mb 0.00 in0.0 mm 0.00 in0.0 mm 0.02 in0.5 mm
11:51 PM 37.2°F2.9°C 34.2°F1.2°C 88% 16.0 mph NNW25.7 kmh NNW 24.0 mph38.6 kmh 30.13 in1020.3 mb 0.00 in0.0 mm 0.00 in0.0 mm 0.02 in0.5 mm
11:54 PM 37.2°F2.9°C 34.0°F1.1°C 88% 16.0 mph NNW25.7 kmh NNW 24.0 mph38.6 kmh 30.13 in1020.3 mb 0.00 in0.0 mm 0.00 in0.0 mm 0.02 in0.5 mm
11:57 PM 37.2°F2.9°C 34.0°F1.1°C 88% 16.0 mph NNW25.7 kmh NNW 23.0 mph37.0 kmh 30.13 in1020.3 mb 0.00 in0.0 mm 0.00 in0.0 mm 0.02 in0.5 mm